<?xml version="1.0" encoding="UTF-8" standalone="no" ?>
<gpx xmlns="http://www.topografix.com/GPX/1/1" xmlns:xsi="http://www.w3.org/2001/XMLSchema-instance" xsi:schemaLocation="http://www.topografix.com/GPX/1/1 http://www.topografix.com/GPX/1/1/gpx.xsd" version="1.1" creator="VisuGPX - https://www.visugpx.com">
  <metadata>
    <name>Croix Boyon</name>
    <desc><![CDATA[Sortie M.N du mardi 29/04/2014, (animateur Michel).]]></desc>
  </metadata>
  <wpt lat="47.17783" lon="5.50384">
    <ele>280</ele>
  </wpt>
  <wpt lat="47.17976" lon="5.50594">
    <ele>307.9</ele>
  </wpt>
  <wpt lat="47.17991" lon="5.51259">
    <ele>336.5</ele>
  </wpt>
  <wpt lat="47.18503" lon="5.51656">
    <ele>304.7</ele>
  </wpt>
  <wpt lat="47.17967" lon="5.52057">
    <ele>336.7</ele>
  </wpt>
  <wpt lat="47.18198" lon="5.51828">
    <ele>349.9</ele>
  </wpt>
  <wpt lat="47.17383" lon="5.52775">
    <ele>349.5</ele>
  </wpt>
  <trk>
    <name><![CDATA[Croix Boyon_1]]></name>
    <trkseg>
      <trkpt lat="47.16211" lon="5.51749">
        <ele>307.7</ele>
        <time>2014-04-26T16:25:21Z</time>
      </trkpt>
      <trkpt lat="47.16207" lon="5.51747">
        <ele>307.7</ele>
        <time>2014-04-26T16:25:51Z</time>
      </trkpt>
      <trkpt lat="47.16207" lon="5.51746">
        <ele>307.7</ele>
        <time>2014-04-26T16:25:56Z</time>
      </trkpt>
      <trkpt lat="47.16206" lon="5.51747">
        <ele>307.7</ele>
        <time>2014-04-26T16:26:01Z</time>
      </trkpt>
      <trkpt lat="47.16206" lon="5.51745">
        <ele>307.7</ele>
        <time>2014-04-26T16:26:06Z</time>
      </trkpt>
      <trkpt lat="47.16205" lon="5.51744">
        <ele>307.7</ele>
        <time>2014-04-26T16:26:11Z</time>
      </trkpt>
      <trkpt lat="47.16205" lon="5.51745">
        <ele>305.51865</ele>
        <time>2014-04-26T16:27:01Z</time>
      </trkpt>
      <trkpt lat="47.16205" lon="5.51746">
        <ele>305.51865</ele>
        <time>2014-04-26T16:27:11Z</time>
      </trkpt>
      <trkpt lat="47.16206" lon="5.51745">
        <ele>305.51865</ele>
        <time>2014-04-26T16:27:16Z</time>
      </trkpt>
      <trkpt lat="47.16209" lon="5.51743">
        <ele>305.51865</ele>
        <time>2014-04-26T16:27:31Z</time>
      </trkpt>
      <trkpt lat="47.16209" lon="5.51743">
        <ele>305.51865</ele>
        <time>2014-04-26T16:27:36Z</time>
      </trkpt>
      <trkpt lat="47.16209" lon="5.51743">
        <ele>305.51865</ele>
        <time>2014-04-26T16:27:41Z</time>
      </trkpt>
      <trkpt lat="47.16213" lon="5.51742">
        <ele>307.62958</ele>
        <time>2014-04-26T16:27:51Z</time>
      </trkpt>
      <trkpt lat="47.1622" lon="5.51736">
        <ele>307.62958</ele>
        <time>2014-04-26T16:27:56Z</time>
      </trkpt>
      <trkpt lat="47.16243" lon="5.51724">
        <ele>309.7123</ele>
        <time>2014-04-26T16:28:01Z</time>
      </trkpt>
      <trkpt lat="47.16274" lon="5.51701">
        <ele>310.9958</ele>
        <time>2014-04-26T16:28:06Z</time>
      </trkpt>
      <trkpt lat="47.163" lon="5.51681">
        <ele>311.97055</ele>
        <time>2014-04-26T16:28:11Z</time>
      </trkpt>
      <trkpt lat="47.16337" lon="5.51667">
        <ele>312.70676</ele>
        <time>2014-04-26T16:28:16Z</time>
      </trkpt>
      <trkpt lat="47.16379" lon="5.51667">
        <ele>312.97244</ele>
        <time>2014-04-26T16:28:21Z</time>
      </trkpt>
      <trkpt lat="47.16425" lon="5.5167">
        <ele>312.28854</ele>
        <time>2014-04-26T16:28:26Z</time>
      </trkpt>
      <trkpt lat="47.16463" lon="5.51667">
        <ele>311.26837</ele>
        <time>2014-04-26T16:28:31Z</time>
      </trkpt>
      <trkpt lat="47.16506" lon="5.51663">
        <ele>309.99515</ele>
        <time>2014-04-26T16:28:36Z</time>
      </trkpt>
      <trkpt lat="47.16531" lon="5.5166">
        <ele>308.7244</ele>
        <time>2014-04-26T16:28:41Z</time>
      </trkpt>
      <trkpt lat="47.16561" lon="5.51658">
        <ele>307.63126</ele>
        <time>2014-04-26T16:28:46Z</time>
      </trkpt>
      <trkpt lat="47.16589" lon="5.51651">
        <ele>306.60538</ele>
        <time>2014-04-26T16:28:51Z</time>
      </trkpt>
      <trkpt lat="47.1661" lon="5.5165">
        <ele>305.61533</ele>
        <time>2014-04-26T16:28:56Z</time>
      </trkpt>
      <trkpt lat="47.16633" lon="5.5165">
        <ele>304.61475</ele>
        <time>2014-04-26T16:29:01Z</time>
      </trkpt>
      <trkpt lat="47.16661" lon="5.51649">
        <ele>303.6583</ele>
        <time>2014-04-26T16:29:06Z</time>
      </trkpt>
      <trkpt lat="47.1668" lon="5.51649">
        <ele>302.77478</ele>
        <time>2014-04-26T16:29:11Z</time>
      </trkpt>
      <trkpt lat="47.16709" lon="5.51643">
        <ele>302.01794</ele>
        <time>2014-04-26T16:29:16Z</time>
      </trkpt>
      <trkpt lat="47.16729" lon="5.51636">
        <ele>301.36722</ele>
        <time>2014-04-26T16:29:21Z</time>
      </trkpt>
      <trkpt lat="47.16751" lon="5.51622">
        <ele>300.83286</ele>
        <time>2014-04-26T16:29:26Z</time>
      </trkpt>
      <trkpt lat="47.16775" lon="5.5161">
        <ele>300.39047</ele>
        <time>2014-04-26T16:29:31Z</time>
      </trkpt>
      <trkpt lat="47.1679" lon="5.51603">
        <ele>299.89536</ele>
        <time>2014-04-26T16:29:36Z</time>
      </trkpt>
      <trkpt lat="47.16813" lon="5.51596">
        <ele>299.2656</ele>
        <time>2014-04-26T16:29:41Z</time>
      </trkpt>
      <trkpt lat="47.16838" lon="5.51592">
        <ele>298.9313</ele>
        <time>2014-04-26T16:29:46Z</time>
      </trkpt>
      <trkpt lat="47.16859" lon="5.51591">
        <ele>298.93353</ele>
        <time>2014-04-26T16:29:51Z</time>
      </trkpt>
      <trkpt lat="47.16877" lon="5.51583">
        <ele>299.03506</ele>
        <time>2014-04-26T16:29:56Z</time>
      </trkpt>
      <trkpt lat="47.16885" lon="5.51579">
        <ele>299.03506</ele>
        <time>2014-04-26T16:30:01Z</time>
      </trkpt>
      <trkpt lat="47.16888" lon="5.51578">
        <ele>298.94043</ele>
        <time>2014-04-26T16:30:06Z</time>
      </trkpt>
      <trkpt lat="47.16889" lon="5.51581">
        <ele>298.94043</ele>
        <time>2014-04-26T16:30:11Z</time>
      </trkpt>
      <trkpt lat="47.16899" lon="5.51576">
        <ele>298.65387</ele>
        <time>2014-04-26T16:30:26Z</time>
      </trkpt>
      <trkpt lat="47.16905" lon="5.51568">
        <ele>298.65387</ele>
        <time>2014-04-26T16:30:31Z</time>
      </trkpt>
      <trkpt lat="47.16904" lon="5.51569">
        <ele>298.65387</ele>
        <time>2014-04-26T16:30:36Z</time>
      </trkpt>
      <trkpt lat="47.16909" lon="5.51562">
        <ele>298.26245</ele>
        <time>2014-04-26T16:31:16Z</time>
      </trkpt>
      <trkpt lat="47.16922" lon="5.51545">
        <ele>297.9139</ele>
        <time>2014-04-26T16:31:21Z</time>
      </trkpt>
      <trkpt lat="47.16938" lon="5.51525">
        <ele>297.6179</ele>
        <time>2014-04-26T16:31:26Z</time>
      </trkpt>
      <trkpt lat="47.16957" lon="5.51498">
        <ele>297.4113</ele>
        <time>2014-04-26T16:31:31Z</time>
      </trkpt>
      <trkpt lat="47.16979" lon="5.51473">
        <ele>297.23154</ele>
        <time>2014-04-26T16:31:36Z</time>
      </trkpt>
      <trkpt lat="47.17009" lon="5.51447">
        <ele>297.15982</ele>
        <time>2014-04-26T16:31:41Z</time>
      </trkpt>
      <trkpt lat="47.17045" lon="5.51425">
        <ele>297.0213</ele>
        <time>2014-04-26T16:31:46Z</time>
      </trkpt>
      <trkpt lat="47.17077" lon="5.51419">
        <ele>296.98816</ele>
        <time>2014-04-26T16:31:51Z</time>
      </trkpt>
      <trkpt lat="47.17095" lon="5.51422">
        <ele>296.87067</ele>
        <time>2014-04-26T16:31:56Z</time>
      </trkpt>
      <trkpt lat="47.17097" lon="5.51421">
        <ele>296.87067</ele>
        <time>2014-04-26T16:32:01Z</time>
      </trkpt>
      <trkpt lat="47.17099" lon="5.51421">
        <ele>296.87067</ele>
        <time>2014-04-26T16:32:06Z</time>
      </trkpt>
      <trkpt lat="47.171" lon="5.51422">
        <ele>296.87067</ele>
        <time>2014-04-26T16:32:11Z</time>
      </trkpt>
      <trkpt lat="47.17106" lon="5.51427">
        <ele>296.67374</ele>
        <time>2014-04-26T16:32:16Z</time>
      </trkpt>
      <trkpt lat="47.1712" lon="5.51428">
        <ele>296.4451</ele>
        <time>2014-04-26T16:32:21Z</time>
      </trkpt>
      <trkpt lat="47.17136" lon="5.51418">
        <ele>296.94885</ele>
        <time>2014-04-26T16:32:26Z</time>
      </trkpt>
      <trkpt lat="47.17158" lon="5.51409">
        <ele>297.46167</ele>
        <time>2014-04-26T16:32:31Z</time>
      </trkpt>
      <trkpt lat="47.1717" lon="5.51395">
        <ele>297.5292</ele>
        <time>2014-04-26T16:32:36Z</time>
      </trkpt>
      <trkpt lat="47.17178" lon="5.51377">
        <ele>297.4116</ele>
        <time>2014-04-26T16:32:41Z</time>
      </trkpt>
      <trkpt lat="47.17189" lon="5.51359">
        <ele>297.09085</ele>
        <time>2014-04-26T16:32:46Z</time>
      </trkpt>
      <trkpt lat="47.17205" lon="5.51334">
        <ele>296.6403</ele>
        <time>2014-04-26T16:32:51Z</time>
      </trkpt>
      <trkpt lat="47.1722" lon="5.51316">
        <ele>296.44275</ele>
        <time>2014-04-26T16:32:56Z</time>
      </trkpt>
      <trkpt lat="47.17238" lon="5.51297">
        <ele>296.3631</ele>
        <time>2014-04-26T16:33:01Z</time>
      </trkpt>
      <trkpt lat="47.17256" lon="5.5128">
        <ele>296.31876</ele>
        <time>2014-04-26T16:33:06Z</time>
      </trkpt>
      <trkpt lat="47.17271" lon="5.51266">
        <ele>296.3677</ele>
        <time>2014-04-26T16:33:11Z</time>
      </trkpt>
      <trkpt lat="47.17287" lon="5.51255">
        <ele>296.39758</ele>
        <time>2014-04-26T16:33:16Z</time>
      </trkpt>
      <trkpt lat="47.17304" lon="5.51248">
        <ele>296.30405</ele>
        <time>2014-04-26T16:33:21Z</time>
      </trkpt>
      <trkpt lat="47.17313" lon="5.51241">
        <ele>296.38354</ele>
        <time>2014-04-26T16:33:26Z</time>
      </trkpt>
      <trkpt lat="47.17314" lon="5.5124">
        <ele>296.38354</ele>
        <time>2014-04-26T16:33:31Z</time>
      </trkpt>
      <trkpt lat="47.17314" lon="5.51238">
        <ele>296.38354</ele>
        <time>2014-04-26T16:33:36Z</time>
      </trkpt>
      <trkpt lat="47.17317" lon="5.51233">
        <ele>296.38354</ele>
        <time>2014-04-26T16:33:46Z</time>
      </trkpt>
      <trkpt lat="47.17323" lon="5.51225">
        <ele>296.81885</ele>
        <time>2014-04-26T16:33:51Z</time>
      </trkpt>
      <trkpt lat="47.17338" lon="5.51208">
        <ele>297.0526</ele>
        <time>2014-04-26T16:33:56Z</time>
      </trkpt>
      <trkpt lat="47.17351" lon="5.51195">
        <ele>297.35608</ele>
        <time>2014-04-26T16:34:01Z</time>
      </trkpt>
      <trkpt lat="47.17365" lon="5.51184">
        <ele>297.64746</ele>
        <time>2014-04-26T16:34:06Z</time>
      </trkpt>
      <trkpt lat="47.17379" lon="5.51171">
        <ele>298.01688</ele>
        <time>2014-04-26T16:34:11Z</time>
      </trkpt>
      <trkpt lat="47.17395" lon="5.51158">
        <ele>298.38193</ele>
        <time>2014-04-26T16:34:16Z</time>
      </trkpt>
      <trkpt lat="47.17424" lon="5.51147">
        <ele>298.56232</ele>
        <time>2014-04-26T16:34:21Z</time>
      </trkpt>
      <trkpt lat="47.17454" lon="5.51135">
        <ele>298.60254</ele>
        <time>2014-04-26T16:34:26Z</time>
      </trkpt>
      <trkpt lat="47.17481" lon="5.51115">
        <ele>298.49918</ele>
        <time>2014-04-26T16:34:31Z</time>
      </trkpt>
      <trkpt lat="47.17497" lon="5.51086">
        <ele>298.48727</ele>
        <time>2014-04-26T16:34:36Z</time>
      </trkpt>
      <trkpt lat="47.17508" lon="5.51058">
        <ele>298.515</ele>
        <time>2014-04-26T16:34:41Z</time>
      </trkpt>
      <trkpt lat="47.17521" lon="5.51026">
        <ele>298.60876</ele>
        <time>2014-04-26T16:34:46Z</time>
      </trkpt>
      <trkpt lat="47.17528" lon="5.5101">
        <ele>298.76303</ele>
        <time>2014-04-26T16:34:51Z</time>
      </trkpt>
      <trkpt lat="47.17527" lon="5.5101">
        <ele>298.76303</ele>
        <time>2014-04-26T16:34:56Z</time>
      </trkpt>
      <trkpt lat="47.17524" lon="5.50991">
        <ele>299.23743</ele>
        <time>2014-04-26T16:35:16Z</time>
      </trkpt>
      <trkpt lat="47.17532" lon="5.5097">
        <ele>299.63806</ele>
        <time>2014-04-26T16:35:21Z</time>
      </trkpt>
      <trkpt lat="47.17541" lon="5.50941">
        <ele>299.7942</ele>
        <time>2014-04-26T16:35:26Z</time>
      </trkpt>
      <trkpt lat="47.17549" lon="5.50916">
        <ele>299.78357</ele>
        <time>2014-04-26T16:35:31Z</time>
      </trkpt>
      <trkpt lat="47.17559" lon="5.50897">
        <ele>299.61957</ele>
        <time>2014-04-26T16:35:36Z</time>
      </trkpt>
      <trkpt lat="47.1757" lon="5.50883">
        <ele>299.41678</ele>
        <time>2014-04-26T16:35:41Z</time>
      </trkpt>
      <trkpt lat="47.1758" lon="5.50865">
        <ele>299.07715</ele>
        <time>2014-04-26T16:35:46Z</time>
      </trkpt>
      <trkpt lat="47.1759" lon="5.50847">
        <ele>298.6994</ele>
        <time>2014-04-26T16:35:51Z</time>
      </trkpt>
      <trkpt lat="47.17595" lon="5.50833">
        <ele>298.36017</ele>
        <time>2014-04-26T16:35:56Z</time>
      </trkpt>
      <trkpt lat="47.17595" lon="5.50829">
        <ele>298.36017</ele>
        <time>2014-04-26T16:36:01Z</time>
      </trkpt>
      <trkpt lat="47.17595" lon="5.50829">
        <ele>298.36017</ele>
        <time>2014-04-26T16:36:06Z</time>
      </trkpt>
      <trkpt lat="47.17595" lon="5.50829">
        <ele>298.36017</ele>
        <time>2014-04-26T16:36:11Z</time>
      </trkpt>
      <trkpt lat="47.17595" lon="5.50825">
        <ele>298.36017</ele>
        <time>2014-04-26T16:36:16Z</time>
      </trkpt>
      <trkpt lat="47.17601" lon="5.50807">
        <ele>298.66595</ele>
        <time>2014-04-26T16:36:21Z</time>
      </trkpt>
      <trkpt lat="47.1761" lon="5.50783">
        <ele>298.959</ele>
        <time>2014-04-26T16:36:26Z</time>
      </trkpt>
      <trkpt lat="47.17619" lon="5.50755">
        <ele>299.0951</ele>
        <time>2014-04-26T16:36:31Z</time>
      </trkpt>
      <trkpt lat="47.17625" lon="5.50723">
        <ele>299.1582</ele>
        <time>2014-04-26T16:36:36Z</time>
      </trkpt>
      <trkpt lat="47.17641" lon="5.50675">
        <ele>299.34158</ele>
        <time>2014-04-26T16:36:41Z</time>
      </trkpt>
      <trkpt lat="47.17658" lon="5.50626">
        <ele>299.5349</ele>
        <time>2014-04-26T16:36:46Z</time>
      </trkpt>
      <trkpt lat="47.17672" lon="5.5059">
        <ele>299.66492</ele>
        <time>2014-04-26T16:36:51Z</time>
      </trkpt>
      <trkpt lat="47.1769" lon="5.5057">
        <ele>299.54868</ele>
        <time>2014-04-26T16:36:56Z</time>
      </trkpt>
      <trkpt lat="47.17702" lon="5.50564">
        <ele>299.1328</ele>
        <time>2014-04-26T16:37:01Z</time>
      </trkpt>
      <trkpt lat="47.17704" lon="5.50562">
        <ele>299.1328</ele>
        <time>2014-04-26T16:37:06Z</time>
      </trkpt>
      <trkpt lat="47.17703" lon="5.50561">
        <ele>299.1328</ele>
        <time>2014-04-26T16:37:11Z</time>
      </trkpt>
      <trkpt lat="47.17708" lon="5.5055">
        <ele>299.00323</ele>
        <time>2014-04-26T16:37:16Z</time>
      </trkpt>
      <trkpt lat="47.17718" lon="5.50534">
        <ele>298.90863</ele>
        <time>2014-04-26T16:37:21Z</time>
      </trkpt>
      <trkpt lat="47.17727" lon="5.5051">
        <ele>298.80362</ele>
        <time>2014-04-26T16:37:26Z</time>
      </trkpt>
      <trkpt lat="47.17737" lon="5.50482">
        <ele>298.6606</ele>
        <time>2014-04-26T16:37:31Z</time>
      </trkpt>
      <trkpt lat="47.17738" lon="5.50479">
        <ele>298.6606</ele>
        <time>2014-04-26T16:37:36Z</time>
      </trkpt>
      <trkpt lat="47.17741" lon="5.50477">
        <ele>298.6606</ele>
        <time>2014-04-26T16:37:41Z</time>
      </trkpt>
      <trkpt lat="47.17745" lon="5.50476">
        <ele>298.39648</ele>
        <time>2014-04-26T16:37:46Z</time>
      </trkpt>
      <trkpt lat="47.17747" lon="5.50473">
        <ele>298.39648</ele>
        <time>2014-04-26T16:37:56Z</time>
      </trkpt>
      <trkpt lat="47.17757" lon="5.50455">
        <ele>298.03546</ele>
        <time>2014-04-26T16:38:01Z</time>
      </trkpt>
      <trkpt lat="47.17766" lon="5.50428">
        <ele>297.7444</ele>
        <time>2014-04-26T16:38:06Z</time>
      </trkpt>
      <trkpt lat="47.17777" lon="5.50401">
        <ele>297.50473</ele>
        <time>2014-04-26T16:38:11Z</time>
      </trkpt>
      <trkpt lat="47.17782" lon="5.50387">
        <ele>297.45767</ele>
        <time>2014-04-26T16:38:16Z</time>
      </trkpt>
      <trkpt lat="47.17779" lon="5.50387">
        <ele>297.45767</ele>
        <time>2014-04-26T16:38:21Z</time>
      </trkpt>
      <trkpt lat="47.17784" lon="5.50387">
        <ele>297.45767</ele>
        <time>2014-04-26T16:38:31Z</time>
      </trkpt>
      <trkpt lat="47.17784" lon="5.50384">
        <ele>297.57498</ele>
        <time>2014-04-26T16:38:36Z</time>
      </trkpt>
      <trkpt lat="47.17782" lon="5.50383">
        <ele>297.57498</ele>
        <time>2014-04-26T16:38:41Z</time>
      </trkpt>
      <trkpt lat="47.17781" lon="5.50381">
        <ele>297.57498</ele>
        <time>2014-04-26T16:38:46Z</time>
      </trkpt>
      <trkpt lat="47.17781" lon="5.5038">
        <ele>297.57498</ele>
        <time>2014-04-26T16:38:51Z</time>
      </trkpt>
      <trkpt lat="47.17781" lon="5.5038">
        <ele>297.57498</ele>
        <time>2014-04-26T16:38:56Z</time>
      </trkpt>
      <trkpt lat="47.17783" lon="5.50388">
        <ele>297.7001</ele>
        <time>2014-04-26T16:39:06Z</time>
      </trkpt>
      <trkpt lat="47.17785" lon="5.50389">
        <ele>297.7001</ele>
        <time>2014-04-26T16:39:11Z</time>
      </trkpt>
      <trkpt lat="47.17789" lon="5.50393">
        <ele>297.7001</ele>
        <time>2014-04-26T16:39:16Z</time>
      </trkpt>
      <trkpt lat="47.17792" lon="5.50394">
        <ele>297.77454</ele>
        <time>2014-04-26T16:39:21Z</time>
      </trkpt>
      <trkpt lat="47.1779" lon="5.5039">
        <ele>297.77454</ele>
        <time>2014-04-26T16:39:26Z</time>
      </trkpt>
      <trkpt lat="47.17788" lon="5.50385">
        <ele>297.77454</ele>
        <time>2014-04-26T16:39:31Z</time>
      </trkpt>
      <trkpt lat="47.17792" lon="5.50374">
        <ele>298.24896</ele>
        <time>2014-04-26T16:39:36Z</time>
      </trkpt>
      <trkpt lat="47.17793" lon="5.50372">
        <ele>298.24896</ele>
        <time>2014-04-26T16:39:41Z</time>
      </trkpt>
      <trkpt lat="47.17792" lon="5.5037">
        <ele>298.24896</ele>
        <time>2014-04-26T16:39:46Z</time>
      </trkpt>
      <trkpt lat="47.17792" lon="5.5037">
        <ele>298.24896</ele>
        <time>2014-04-26T16:39:51Z</time>
      </trkpt>
      <trkpt lat="47.17801" lon="5.50374">
        <ele>298.84756</ele>
        <time>2014-04-26T16:40:01Z</time>
      </trkpt>
      <trkpt lat="47.17806" lon="5.50374">
        <ele>298.84756</ele>
        <time>2014-04-26T16:40:06Z</time>
      </trkpt>
      <trkpt lat="47.1781" lon="5.50378">
        <ele>299.17014</ele>
        <time>2014-04-26T16:40:11Z</time>
      </trkpt>
      <trkpt lat="47.17815" lon="5.50381">
        <ele>299.17014</ele>
        <time>2014-04-26T16:40:16Z</time>
      </trkpt>
      <trkpt lat="47.17819" lon="5.50385">
        <ele>299.2072</ele>
        <time>2014-04-26T16:40:21Z</time>
      </trkpt>
      <trkpt lat="47.17821" lon="5.50387">
        <ele>299.2072</ele>
        <time>2014-04-26T16:40:26Z</time>
      </trkpt>
      <trkpt lat="47.17827" lon="5.50391">
        <ele>299.2683</ele>
        <time>2014-04-26T16:40:31Z</time>
      </trkpt>
      <trkpt lat="47.17833" lon="5.50396">
        <ele>299.2683</ele>
        <time>2014-04-26T16:40:36Z</time>
      </trkpt>
      <trkpt lat="47.17842" lon="5.50403">
        <ele>299.2938</ele>
        <time>2014-04-26T16:40:41Z</time>
      </trkpt>
      <trkpt lat="47.1785" lon="5.50409">
        <ele>299.2938</ele>
        <time>2014-04-26T16:40:46Z</time>
      </trkpt>
      <trkpt lat="47.17858" lon="5.50414">
        <ele>299.5892</ele>
        <time>2014-04-26T16:40:51Z</time>
      </trkpt>
      <trkpt lat="47.17864" lon="5.50419">
        <ele>299.5892</ele>
        <time>2014-04-26T16:40:56Z</time>
      </trkpt>
      <trkpt lat="47.17869" lon="5.50423">
        <ele>300.17715</ele>
        <time>2014-04-26T16:41:01Z</time>
      </trkpt>
      <trkpt lat="47.17872" lon="5.50423">
        <ele>300.17715</ele>
        <time>2014-04-26T16:41:06Z</time>
      </trkpt>
      <trkpt lat="47.17877" lon="5.50421">
        <ele>300.17715</ele>
        <time>2014-04-26T16:41:11Z</time>
      </trkpt>
      <trkpt lat="47.17882" lon="5.50425">
        <ele>300.9625</ele>
        <time>2014-04-26T16:41:16Z</time>
      </trkpt>
      <trkpt lat="47.17886" lon="5.50429">
        <ele>300.9625</ele>
        <time>2014-04-26T16:41:21Z</time>
      </trkpt>
      <trkpt lat="47.17892" lon="5.50432">
        <ele>301.78427</ele>
        <time>2014-04-26T16:41:26Z</time>
      </trkpt>
      <trkpt lat="47.17896" lon="5.50435">
        <ele>301.78427</ele>
        <time>2014-04-26T16:41:31Z</time>
      </trkpt>
      <trkpt lat="47.179" lon="5.50438">
        <ele>301.78427</ele>
        <time>2014-04-26T16:41:36Z</time>
      </trkpt>
      <trkpt lat="47.17905" lon="5.50439">
        <ele>303.18567</ele>
        <time>2014-04-26T16:41:41Z</time>
      </trkpt>
      <trkpt lat="47.1791" lon="5.50442">
        <ele>303.18567</ele>
        <time>2014-04-26T16:41:46Z</time>
      </trkpt>
      <trkpt lat="47.17913" lon="5.50446">
        <ele>304.39914</ele>
        <time>2014-04-26T16:41:51Z</time>
      </trkpt>
      <trkpt lat="47.17912" lon="5.50446">
        <ele>304.39914</ele>
        <time>2014-04-26T16:41:56Z</time>
      </trkpt>
      <trkpt lat="47.17913" lon="5.5045">
        <ele>304.39914</ele>
        <time>2014-04-26T16:42:01Z</time>
      </trkpt>
      <trkpt lat="47.17915" lon="5.50455">
        <ele>304.39914</ele>
        <time>2014-04-26T16:42:06Z</time>
      </trkpt>
      <trkpt lat="47.17917" lon="5.50452">
        <ele>305.68036</ele>
        <time>2014-04-26T16:42:11Z</time>
      </trkpt>
      <trkpt lat="47.1792" lon="5.50446">
        <ele>305.68036</ele>
        <time>2014-04-26T16:42:26Z</time>
      </trkpt>
      <trkpt lat="47.17921" lon="5.50445">
        <ele>305.68036</ele>
        <time>2014-04-26T16:42:31Z</time>
      </trkpt>
      <trkpt lat="47.17921" lon="5.50445">
        <ele>305.68036</ele>
        <time>2014-04-26T16:42:36Z</time>
      </trkpt>
      <trkpt lat="47.17919" lon="5.50453">
        <ele>307.12192</ele>
        <time>2014-04-26T16:42:56Z</time>
      </trkpt>
      <trkpt lat="47.17924" lon="5.50454">
        <ele>307.12192</ele>
        <time>2014-04-26T16:43:01Z</time>
      </trkpt>
      <trkpt lat="47.17931" lon="5.50457">
        <ele>308.66495</ele>
        <time>2014-04-26T16:43:06Z</time>
      </trkpt>
      <trkpt lat="47.17939" lon="5.50459">
        <ele>308.66495</ele>
        <time>2014-04-26T16:43:11Z</time>
      </trkpt>
      <trkpt lat="47.1795" lon="5.50465">
        <ele>310.70163</ele>
        <time>2014-04-26T16:43:16Z</time>
      </trkpt>
      <trkpt lat="47.1796" lon="5.50473">
        <ele>312.90192</ele>
        <time>2014-04-26T16:43:21Z</time>
      </trkpt>
      <trkpt lat="47.17972" lon="5.50479">
        <ele>315.26248</ele>
        <time>2014-04-26T16:43:26Z</time>
      </trkpt>
      <trkpt lat="47.17982" lon="5.50485">
        <ele>317.8086</ele>
        <time>2014-04-26T16:43:31Z</time>
      </trkpt>
      <trkpt lat="47.17985" lon="5.50499">
        <ele>320.24625</ele>
        <time>2014-04-26T16:43:36Z</time>
      </trkpt>
      <trkpt lat="47.17985" lon="5.50512">
        <ele>322.24573</ele>
        <time>2014-04-26T16:43:41Z</time>
      </trkpt>
      <trkpt lat="47.17984" lon="5.50526">
        <ele>323.69034</ele>
        <time>2014-04-26T16:43:46Z</time>
      </trkpt>
      <trkpt lat="47.17985" lon="5.50536">
        <ele>323.69034</ele>
        <time>2014-04-26T16:43:51Z</time>
      </trkpt>
      <trkpt lat="47.17986" lon="5.50538">
        <ele>323.69034</ele>
        <time>2014-04-26T16:43:56Z</time>
      </trkpt>
      <trkpt lat="47.17987" lon="5.50543">
        <ele>324.05716</ele>
        <time>2014-04-26T16:44:06Z</time>
      </trkpt>
      <trkpt lat="47.17987" lon="5.5055">
        <ele>324.424</ele>
        <time>2014-04-26T16:44:11Z</time>
      </trkpt>
      <trkpt lat="47.17985" lon="5.50555">
        <ele>324.79083</ele>
        <time>2014-04-26T16:44:16Z</time>
      </trkpt>
      <trkpt lat="47.17987" lon="5.50567">
        <ele>324.79083</ele>
        <time>2014-04-26T16:44:21Z</time>
      </trkpt>
      <trkpt lat="47.17988" lon="5.50577">
        <ele>325.97403</ele>
        <time>2014-04-26T16:44:26Z</time>
      </trkpt>
      <trkpt lat="47.17987" lon="5.50588">
        <ele>325.97403</ele>
        <time>2014-04-26T16:44:31Z</time>
      </trkpt>
      <trkpt lat="47.17986" lon="5.50596">
        <ele>327.18854</ele>
        <time>2014-04-26T16:44:36Z</time>
      </trkpt>
      <trkpt lat="47.17983" lon="5.50602">
        <ele>327.18854</ele>
        <time>2014-04-26T16:44:41Z</time>
      </trkpt>
      <trkpt lat="47.17976" lon="5.50606">
        <ele>328.40112</ele>
        <time>2014-04-26T16:44:46Z</time>
      </trkpt>
      <trkpt lat="47.17976" lon="5.50598">
        <ele>328.40112</ele>
        <time>2014-04-26T16:44:51Z</time>
      </trkpt>
      <trkpt lat="47.17976" lon="5.50594">
        <ele>328.40112</ele>
        <time>2014-04-26T16:44:56Z</time>
      </trkpt>
      <trkpt lat="47.17973" lon="5.50594">
        <ele>329.27844</ele>
        <time>2014-04-26T16:45:01Z</time>
      </trkpt>
      <trkpt lat="47.17974" lon="5.50596">
        <ele>329.27844</ele>
        <time>2014-04-26T16:45:06Z</time>
      </trkpt>
      <trkpt lat="47.17973" lon="5.50603">
        <ele>329.27844</ele>
        <time>2014-04-26T16:45:11Z</time>
      </trkpt>
      <trkpt lat="47.17974" lon="5.5061">
        <ele>329.90186</ele>
        <time>2014-04-26T16:45:16Z</time>
      </trkpt>
      <trkpt lat="47.17973" lon="5.50612">
        <ele>329.90186</ele>
        <time>2014-04-26T16:45:21Z</time>
      </trkpt>
      <trkpt lat="47.17975" lon="5.50614">
        <ele>329.90186</ele>
        <time>2014-04-26T16:45:26Z</time>
      </trkpt>
      <trkpt lat="47.17975" lon="5.50617">
        <ele>329.90186</ele>
        <time>2014-04-26T16:45:31Z</time>
      </trkpt>
      <trkpt lat="47.17975" lon="5.5062">
        <ele>329.90186</ele>
        <time>2014-04-26T16:45:36Z</time>
      </trkpt>
      <trkpt lat="47.17979" lon="5.50621">
        <ele>329.4973</ele>
        <time>2014-04-26T16:45:41Z</time>
      </trkpt>
      <trkpt lat="47.1798" lon="5.50629">
        <ele>329.4973</ele>
        <time>2014-04-26T16:45:46Z</time>
      </trkpt>
      <trkpt lat="47.17982" lon="5.50636">
        <ele>329.1232</ele>
        <time>2014-04-26T16:45:51Z</time>
      </trkpt>
      <trkpt lat="47.17984" lon="5.50645">
        <ele>329.1232</ele>
        <time>2014-04-26T16:45:56Z</time>
      </trkpt>
      <trkpt lat="47.17985" lon="5.50654">
        <ele>328.9387</ele>
        <time>2014-04-26T16:46:01Z</time>
      </trkpt>
      <trkpt lat="47.17986" lon="5.50663">
        <ele>328.9387</ele>
        <time>2014-04-26T16:46:06Z</time>
      </trkpt>
      <trkpt lat="47.17988" lon="5.50672">
        <ele>328.98987</ele>
        <time>2014-04-26T16:46:11Z</time>
      </trkpt>
      <trkpt lat="47.17985" lon="5.50681">
        <ele>328.98987</ele>
        <time>2014-04-26T16:46:16Z</time>
      </trkpt>
      <trkpt lat="47.17983" lon="5.50688">
        <ele>328.90097</ele>
        <time>2014-04-26T16:46:21Z</time>
      </trkpt>
      <trkpt lat="47.17981" lon="5.50694">
        <ele>328.90097</ele>
        <time>2014-04-26T16:46:26Z</time>
      </trkpt>
      <trkpt lat="47.1798" lon="5.50695">
        <ele>328.8519</ele>
        <time>2014-04-26T16:46:31Z</time>
      </trkpt>
      <trkpt lat="47.1798" lon="5.50699">
        <ele>328.80283</ele>
        <time>2014-04-26T16:46:46Z</time>
      </trkpt>
      <trkpt lat="47.1798" lon="5.50707">
        <ele>328.75378</ele>
        <time>2014-04-26T16:46:51Z</time>
      </trkpt>
      <trkpt lat="47.17981" lon="5.50714">
        <ele>328.7047</ele>
        <time>2014-04-26T16:46:56Z</time>
      </trkpt>
      <trkpt lat="47.17981" lon="5.50718">
        <ele>328.65564</ele>
        <time>2014-04-26T16:47:01Z</time>
      </trkpt>
      <trkpt lat="47.1798" lon="5.50722">
        <ele>328.65564</ele>
        <time>2014-04-26T16:47:06Z</time>
      </trkpt>
      <trkpt lat="47.17978" lon="5.50724">
        <ele>328.65564</ele>
        <time>2014-04-26T16:47:11Z</time>
      </trkpt>
      <trkpt lat="47.17978" lon="5.50725">
        <ele>328.65564</ele>
        <time>2014-04-26T16:47:16Z</time>
      </trkpt>
      <trkpt lat="47.17983" lon="5.50738">
        <ele>328.12405</ele>
        <time>2014-04-26T16:47:21Z</time>
      </trkpt>
      <trkpt lat="47.17986" lon="5.50752">
        <ele>327.7198</ele>
        <time>2014-04-26T16:47:26Z</time>
      </trkpt>
      <trkpt lat="47.17989" lon="5.50768">
        <ele>327.32147</ele>
        <time>2014-04-26T16:47:31Z</time>
      </trkpt>
      <trkpt lat="47.17991" lon="5.50782">
        <ele>326.98947</ele>
        <time>2014-04-26T16:47:36Z</time>
      </trkpt>
      <trkpt lat="47.17991" lon="5.508">
        <ele>326.83716</ele>
        <time>2014-04-26T16:47:41Z</time>
      </trkpt>
      <trkpt lat="47.1799" lon="5.5082">
        <ele>326.7818</ele>
        <time>2014-04-26T16:47:46Z</time>
      </trkpt>
      <trkpt lat="47.17992" lon="5.50841">
        <ele>326.68872</ele>
        <time>2014-04-26T16:47:51Z</time>
      </trkpt>
      <trkpt lat="47.17996" lon="5.50861">
        <ele>326.7791</ele>
        <time>2014-04-26T16:47:56Z</time>
      </trkpt>
      <trkpt lat="47.17997" lon="5.50878">
        <ele>326.9259</ele>
        <time>2014-04-26T16:48:01Z</time>
      </trkpt>
      <trkpt lat="47.17999" lon="5.50897">
        <ele>327.06885</ele>
        <time>2014-04-26T16:48:06Z</time>
      </trkpt>
      <trkpt lat="47.17999" lon="5.50917">
        <ele>327.35382</ele>
        <time>2014-04-26T16:48:11Z</time>
      </trkpt>
      <trkpt lat="47.17997" lon="5.50933">
        <ele>327.67056</ele>
        <time>2014-04-26T16:48:16Z</time>
      </trkpt>
      <trkpt lat="47.17997" lon="5.50946">
        <ele>327.67056</ele>
        <time>2014-04-26T16:48:21Z</time>
      </trkpt>
      <trkpt lat="47.17998" lon="5.50962">
        <ele>329.08408</ele>
        <time>2014-04-26T16:48:41Z</time>
      </trkpt>
      <trkpt lat="47.17998" lon="5.50974">
        <ele>329.08408</ele>
        <time>2014-04-26T16:48:46Z</time>
      </trkpt>
      <trkpt lat="47.17998" lon="5.50986">
        <ele>330.60376</ele>
        <time>2014-04-26T16:48:51Z</time>
      </trkpt>
      <trkpt lat="47.17989" lon="5.51042">
        <ele>332.04633</ele>
        <time>2014-04-26T16:48:56Z</time>
      </trkpt>
      <trkpt lat="47.17988" lon="5.51052">
        <ele>332.04633</ele>
        <time>2014-04-26T16:49:01Z</time>
      </trkpt>
      <trkpt lat="47.17986" lon="5.51061">
        <ele>333.6313</ele>
        <time>2014-04-26T16:49:16Z</time>
      </trkpt>
      <trkpt lat="47.17985" lon="5.51061">
        <ele>333.6313</ele>
        <time>2014-04-26T16:49:21Z</time>
      </trkpt>
      <trkpt lat="47.17986" lon="5.51067">
        <ele>333.6313</ele>
        <time>2014-04-26T16:49:31Z</time>
      </trkpt>
      <trkpt lat="47.17988" lon="5.51083">
        <ele>335.02844</ele>
        <time>2014-04-26T16:49:36Z</time>
      </trkpt>
      <trkpt lat="47.17991" lon="5.511">
        <ele>336.2782</ele>
        <time>2014-04-26T16:49:41Z</time>
      </trkpt>
      <trkpt lat="47.17996" lon="5.51116">
        <ele>337.4184</ele>
        <time>2014-04-26T16:49:46Z</time>
      </trkpt>
      <trkpt lat="47.17997" lon="5.5113">
        <ele>338.5421</ele>
        <time>2014-04-26T16:49:51Z</time>
      </trkpt>
      <trkpt lat="47.17994" lon="5.51147">
        <ele>339.4906</ele>
        <time>2014-04-26T16:49:56Z</time>
      </trkpt>
      <trkpt lat="47.17992" lon="5.51165">
        <ele>340.3335</ele>
        <time>2014-04-26T16:50:01Z</time>
      </trkpt>
      <trkpt lat="47.17992" lon="5.51188">
        <ele>341.06357</ele>
        <time>2014-04-26T16:50:19Z</time>
      </trkpt>
      <trkpt lat="47.17992" lon="5.51191">
        <ele>341.06357</ele>
        <time>2014-04-26T16:50:21Z</time>
      </trkpt>
      <trkpt lat="47.17994" lon="5.51205">
        <ele>341.61676</ele>
        <time>2014-04-26T16:50:26Z</time>
      </trkpt>
      <trkpt lat="47.17993" lon="5.51214">
        <ele>341.61676</ele>
        <time>2014-04-26T16:50:31Z</time>
      </trkpt>
      <trkpt lat="47.17993" lon="5.51215">
        <ele>341.61676</ele>
        <time>2014-04-26T16:50:36Z</time>
      </trkpt>
      <trkpt lat="47.17993" lon="5.51225">
        <ele>342.25137</ele>
        <time>2014-04-26T16:50:41Z</time>
      </trkpt>
      <trkpt lat="47.17991" lon="5.5124">
        <ele>342.86053</ele>
        <time>2014-04-26T16:50:46Z</time>
      </trkpt>
      <trkpt lat="47.17988" lon="5.5125">
        <ele>342.86053</ele>
        <time>2014-04-26T16:50:51Z</time>
      </trkpt>
      <trkpt lat="47.17986" lon="5.51252">
        <ele>343.40305</ele>
        <time>2014-04-26T16:50:56Z</time>
      </trkpt>
      <trkpt lat="47.17985" lon="5.51252">
        <ele>343.40305</ele>
        <time>2014-04-26T16:51:01Z</time>
      </trkpt>
      <trkpt lat="47.17985" lon="5.51255">
        <ele>343.40305</ele>
        <time>2014-04-26T16:51:06Z</time>
      </trkpt>
      <trkpt lat="47.17987" lon="5.51254">
        <ele>343.40305</ele>
        <time>2014-04-26T16:51:11Z</time>
      </trkpt>
      <trkpt lat="47.17993" lon="5.51263">
        <ele>344.11475</ele>
        <time>2014-04-26T16:51:16Z</time>
      </trkpt>
      <trkpt lat="47.17994" lon="5.51263">
        <ele>344.11475</ele>
        <time>2014-04-26T16:51:21Z</time>
      </trkpt>
      <trkpt lat="47.17993" lon="5.51261">
        <ele>344.11475</ele>
        <time>2014-04-26T16:51:26Z</time>
      </trkpt>
      <trkpt lat="47.17993" lon="5.51262">
        <ele>344.11475</ele>
        <time>2014-04-26T16:51:31Z</time>
      </trkpt>
      <trkpt lat="47.17996" lon="5.51266">
        <ele>344.11475</ele>
        <time>2014-04-26T16:51:36Z</time>
      </trkpt>
      <trkpt lat="47.18" lon="5.51267">
        <ele>345.0983</ele>
        <time>2014-04-26T16:51:41Z</time>
      </trkpt>
      <trkpt lat="47.17999" lon="5.51265">
        <ele>345.0983</ele>
        <time>2014-04-26T16:51:46Z</time>
      </trkpt>
      <trkpt lat="47.17994" lon="5.51255">
        <ele>346.53467</ele>
        <time>2014-04-26T16:52:01Z</time>
      </trkpt>
      <trkpt lat="47.17996" lon="5.51261">
        <ele>346.53467</ele>
        <time>2014-04-26T16:52:06Z</time>
      </trkpt>
      <trkpt lat="47.18001" lon="5.51261">
        <ele>347.76874</ele>
        <time>2014-04-26T16:52:11Z</time>
      </trkpt>
      <trkpt lat="47.18" lon="5.51262">
        <ele>347.76874</ele>
        <time>2014-04-26T16:52:16Z</time>
      </trkpt>
      <trkpt lat="47.17995" lon="5.51244">
        <ele>347.87952</ele>
        <time>2014-04-26T17:03:20Z</time>
      </trkpt>
      <trkpt lat="47.18003" lon="5.51234">
        <ele>347.4221</ele>
        <time>2014-04-26T17:03:25Z</time>
      </trkpt>
      <trkpt lat="47.18016" lon="5.51234">
        <ele>346.8012</ele>
        <time>2014-04-26T17:03:30Z</time>
      </trkpt>
      <trkpt lat="47.18027" lon="5.51246">
        <ele>346.43463</ele>
        <time>2014-04-26T17:03:35Z</time>
      </trkpt>
      <trkpt lat="47.18038" lon="5.51259">
        <ele>345.98816</ele>
        <time>2014-04-26T17:03:40Z</time>
      </trkpt>
      <trkpt lat="47.18051" lon="5.5127">
        <ele>345.5414</ele>
        <time>2014-04-26T17:03:45Z</time>
      </trkpt>
      <trkpt lat="47.1806" lon="5.51282">
        <ele>345.3122</ele>
        <time>2014-04-26T17:03:50Z</time>
      </trkpt>
      <trkpt lat="47.18068" lon="5.513">
        <ele>345.15573</ele>
        <time>2014-04-26T17:03:55Z</time>
      </trkpt>
      <trkpt lat="47.18076" lon="5.51314">
        <ele>345.053</ele>
        <time>2014-04-26T17:04:00Z</time>
      </trkpt>
      <trkpt lat="47.18084" lon="5.51323">
        <ele>345.0005</ele>
        <time>2014-04-26T17:04:05Z</time>
      </trkpt>
      <trkpt lat="47.18088" lon="5.51328">
        <ele>345.0005</ele>
        <time>2014-04-26T17:04:10Z</time>
      </trkpt>
      <trkpt lat="47.18091" lon="5.5133">
        <ele>345.0005</ele>
        <time>2014-04-26T17:04:15Z</time>
      </trkpt>
      <trkpt lat="47.18092" lon="5.51331">
        <ele>345.1677</ele>
        <time>2014-04-26T17:04:20Z</time>
      </trkpt>
      <trkpt lat="47.18093" lon="5.51345">
        <ele>345.56696</ele>
        <time>2014-04-26T17:04:40Z</time>
      </trkpt>
      <trkpt lat="47.18098" lon="5.51347">
        <ele>345.56696</ele>
        <time>2014-04-26T17:04:50Z</time>
      </trkpt>
      <trkpt lat="47.18097" lon="5.51348">
        <ele>345.56696</ele>
        <time>2014-04-26T17:04:55Z</time>
      </trkpt>
      <trkpt lat="47.18099" lon="5.51352">
        <ele>346.22336</ele>
        <time>2014-04-26T17:05:15Z</time>
      </trkpt>
      <trkpt lat="47.18101" lon="5.51361">
        <ele>341.26752</ele>
        <time>2014-04-26T17:10:05Z</time>
      </trkpt>
      <trkpt lat="47.18103" lon="5.5137">
        <ele>341.26752</ele>
        <time>2014-04-26T17:10:10Z</time>
      </trkpt>
      <trkpt lat="47.18106" lon="5.51372">
        <ele>341.77005</ele>
        <time>2014-04-26T17:10:15Z</time>
      </trkpt>
      <trkpt lat="47.1811" lon="5.51376">
        <ele>341.77005</ele>
        <time>2014-04-26T17:10:20Z</time>
      </trkpt>
      <trkpt lat="47.1811" lon="5.51375">
        <ele>341.77005</ele>
        <time>2014-04-26T17:10:25Z</time>
      </trkpt>
      <trkpt lat="47.18113" lon="5.51381">
        <ele>342.25357</ele>
        <time>2014-04-26T17:10:40Z</time>
      </trkpt>
      <trkpt lat="47.18114" lon="5.5138">
        <ele>342.25357</ele>
        <time>2014-04-26T17:10:45Z</time>
      </trkpt>
      <trkpt lat="47.18115" lon="5.51379">
        <ele>342.25357</ele>
        <time>2014-04-26T17:10:50Z</time>
      </trkpt>
      <trkpt lat="47.18114" lon="5.51378">
        <ele>342.25357</ele>
        <time>2014-04-26T17:10:55Z</time>
      </trkpt>
      <trkpt lat="47.18113" lon="5.5138">
        <ele>342.25357</ele>
        <time>2014-04-26T17:11:00Z</time>
      </trkpt>
      <trkpt lat="47.18116" lon="5.51381">
        <ele>342.25357</ele>
        <time>2014-04-26T17:11:05Z</time>
      </trkpt>
      <trkpt lat="47.18126" lon="5.51392">
        <ele>342.97705</ele>
        <time>2014-04-26T17:11:10Z</time>
      </trkpt>
      <trkpt lat="47.18133" lon="5.5141">
        <ele>343.6753</ele>
        <time>2014-04-26T17:11:15Z</time>
      </trkpt>
      <trkpt lat="47.1813" lon="5.51422">
        <ele>343.6753</ele>
        <time>2014-04-26T17:11:20Z</time>
      </trkpt>
      <trkpt lat="47.18131" lon="5.51433">
        <ele>344.46298</ele>
        <time>2014-04-26T17:11:25Z</time>
      </trkpt>
      <trkpt lat="47.18134" lon="5.51447">
        <ele>345.34528</ele>
        <time>2014-04-26T17:11:30Z</time>
      </trkpt>
      <trkpt lat="47.18139" lon="5.51462">
        <ele>346.1969</ele>
        <time>2014-04-26T17:11:35Z</time>
      </trkpt>
      <trkpt lat="47.18149" lon="5.51479">
        <ele>347.14703</ele>
        <time>2014-04-26T17:11:40Z</time>
      </trkpt>
      <trkpt lat="47.18162" lon="5.51485">
        <ele>348.12762</ele>
        <time>2014-04-26T17:11:45Z</time>
      </trkpt>
      <trkpt lat="47.18169" lon="5.51502">
        <ele>349.2198</ele>
        <time>2014-04-26T17:11:50Z</time>
      </trkpt>
      <trkpt lat="47.18178" lon="5.51515">
        <ele>350.311</ele>
        <time>2014-04-26T17:11:55Z</time>
      </trkpt>
      <trkpt lat="47.18189" lon="5.51511">
        <ele>351.36914</ele>
        <time>2014-04-26T17:12:00Z</time>
      </trkpt>
      <trkpt lat="47.18195" lon="5.51508">
        <ele>351.36914</ele>
        <time>2014-04-26T17:12:05Z</time>
      </trkpt>
      <trkpt lat="47.18205" lon="5.51501">
        <ele>352.5087</ele>
        <time>2014-04-26T17:12:10Z</time>
      </trkpt>
      <trkpt lat="47.18223" lon="5.51495">
        <ele>353.50415</ele>
        <time>2014-04-26T17:12:15Z</time>
      </trkpt>
      <trkpt lat="47.18242" lon="5.51497">
        <ele>354.34872</ele>
        <time>2014-04-26T17:12:20Z</time>
      </trkpt>
      <trkpt lat="47.18261" lon="5.51499">
        <ele>354.92142</ele>
        <time>2014-04-26T17:12:25Z</time>
      </trkpt>
      <trkpt lat="47.18283" lon="5.51507">
        <ele>355.34143</ele>
        <time>2014-04-26T17:12:30Z</time>
      </trkpt>
      <trkpt lat="47.18297" lon="5.51511">
        <ele>355.64774</ele>
        <time>2014-04-26T17:12:35Z</time>
      </trkpt>
      <trkpt lat="47.183" lon="5.5151">
        <ele>355.64774</ele>
        <time>2014-04-26T17:12:40Z</time>
      </trkpt>
      <trkpt lat="47.18299" lon="5.51514">
        <ele>355.64774</ele>
        <time>2014-04-26T17:12:45Z</time>
      </trkpt>
      <trkpt lat="47.18301" lon="5.51517">
        <ele>355.64774</ele>
        <time>2014-04-26T17:12:50Z</time>
      </trkpt>
      <trkpt lat="47.18302" lon="5.51518">
        <ele>355.96326</ele>
        <time>2014-04-26T17:12:55Z</time>
      </trkpt>
      <trkpt lat="47.18301" lon="5.51519">
        <ele>355.96326</ele>
        <time>2014-04-26T17:13:00Z</time>
      </trkpt>
      <trkpt lat="47.18299" lon="5.51525">
        <ele>355.96326</ele>
        <time>2014-04-26T17:13:05Z</time>
      </trkpt>
      <trkpt lat="47.18299" lon="5.51527">
        <ele>355.96326</ele>
        <time>2014-04-26T17:13:10Z</time>
      </trkpt>
      <trkpt lat="47.18302" lon="5.51532">
        <ele>356.1858</ele>
        <time>2014-04-26T17:13:15Z</time>
      </trkpt>
      <trkpt lat="47.18317" lon="5.51537">
        <ele>356.39386</ele>
        <time>2014-04-26T17:13:20Z</time>
      </trkpt>
      <trkpt lat="47.1834" lon="5.51545">
        <ele>356.55948</ele>
        <time>2014-04-26T17:13:25Z</time>
      </trkpt>
      <trkpt lat="47.18366" lon="5.51546">
        <ele>356.6857</ele>
        <time>2014-04-26T17:13:30Z</time>
      </trkpt>
      <trkpt lat="47.18387" lon="5.51556">
        <ele>356.87637</ele>
        <time>2014-04-26T17:13:35Z</time>
      </trkpt>
      <trkpt lat="47.18397" lon="5.51571">
        <ele>357.04025</ele>
        <time>2014-04-26T17:13:40Z</time>
      </trkpt>
      <trkpt lat="47.18408" lon="5.51592">
        <ele>356.57416</ele>
        <time>2014-04-26T17:13:45Z</time>
      </trkpt>
      <trkpt lat="47.18406" lon="5.51603">
        <ele>356.57416</ele>
        <time>2014-04-26T17:13:50Z</time>
      </trkpt>
      <trkpt lat="47.18406" lon="5.51609">
        <ele>355.67032</ele>
        <time>2014-04-26T17:13:55Z</time>
      </trkpt>
      <trkpt lat="47.18406" lon="5.51611">
        <ele>355.67032</ele>
        <time>2014-04-26T17:14:05Z</time>
      </trkpt>
      <trkpt lat="47.18408" lon="5.51612">
        <ele>355.67032</ele>
        <time>2014-04-26T17:14:10Z</time>
      </trkpt>
      <trkpt lat="47.18411" lon="5.51622">
        <ele>354.07587</ele>
        <time>2014-04-26T17:14:15Z</time>
      </trkpt>
      <trkpt lat="47.18424" lon="5.51624">
        <ele>352.5671</ele>
        <time>2014-04-26T17:14:20Z</time>
      </trkpt>
      <trkpt lat="47.18442" lon="5.51627">
        <ele>351.25797</ele>
        <time>2014-04-26T17:14:25Z</time>
      </trkpt>
      <trkpt lat="47.18465" lon="5.51627">
        <ele>349.96512</ele>
        <time>2014-04-26T17:14:30Z</time>
      </trkpt>
      <trkpt lat="47.18479" lon="5.51631">
        <ele>348.69156</ele>
        <time>2014-04-26T17:14:35Z</time>
      </trkpt>
      <trkpt lat="47.18481" lon="5.51628">
        <ele>348.69156</ele>
        <time>2014-04-26T17:14:40Z</time>
      </trkpt>
      <trkpt lat="47.18481" lon="5.51628">
        <ele>348.69156</ele>
        <time>2014-04-26T17:14:45Z</time>
      </trkpt>
      <trkpt lat="47.18481" lon="5.51628">
        <ele>348.69156</ele>
        <time>2014-04-26T17:14:50Z</time>
      </trkpt>
      <trkpt lat="47.18474" lon="5.51632">
        <ele>347.9588</ele>
        <time>2014-04-26T17:14:55Z</time>
      </trkpt>
      <trkpt lat="47.18473" lon="5.51632">
        <ele>347.9588</ele>
        <time>2014-04-26T17:15:00Z</time>
      </trkpt>
      <trkpt lat="47.18478" lon="5.51642">
        <ele>347.2974</ele>
        <time>2014-04-26T17:15:05Z</time>
      </trkpt>
      <trkpt lat="47.18491" lon="5.5164">
        <ele>346.5747</ele>
        <time>2014-04-26T17:15:10Z</time>
      </trkpt>
      <trkpt lat="47.18497" lon="5.51657">
        <ele>345.26443</ele>
        <time>2014-04-26T17:15:15Z</time>
      </trkpt>
      <trkpt lat="47.18496" lon="5.51661">
        <ele>345.26443</ele>
        <time>2014-04-26T17:15:20Z</time>
      </trkpt>
      <trkpt lat="47.18498" lon="5.51661">
        <ele>345.26443</ele>
        <time>2014-04-26T17:15:25Z</time>
      </trkpt>
      <trkpt lat="47.18503" lon="5.51662">
        <ele>343.54355</ele>
        <time>2014-04-26T17:15:30Z</time>
      </trkpt>
      <trkpt lat="47.18502" lon="5.5166">
        <ele>343.54355</ele>
        <time>2014-04-26T17:15:35Z</time>
      </trkpt>
      <trkpt lat="47.18502" lon="5.51658">
        <ele>343.54355</ele>
        <time>2014-04-26T17:15:40Z</time>
      </trkpt>
      <trkpt lat="47.18503" lon="5.51655">
        <ele>343.54355</ele>
        <time>2014-04-26T17:15:45Z</time>
      </trkpt>
      <trkpt lat="47.18504" lon="5.51654">
        <ele>343.54355</ele>
        <time>2014-04-26T17:15:50Z</time>
      </trkpt>
      <trkpt lat="47.18506" lon="5.51654">
        <ele>343.54355</ele>
        <time>2014-04-26T17:15:55Z</time>
      </trkpt>
      <trkpt lat="47.18498" lon="5.51654">
        <ele>341.2455</ele>
        <time>2014-04-26T17:16:00Z</time>
      </trkpt>
      <trkpt lat="47.18491" lon="5.51657">
        <ele>341.2455</ele>
        <time>2014-04-26T17:16:05Z</time>
      </trkpt>
      <trkpt lat="47.18491" lon="5.51657">
        <ele>341.2455</ele>
        <time>2014-04-26T17:16:10Z</time>
      </trkpt>
      <trkpt lat="47.18486" lon="5.5166">
        <ele>337.5115</ele>
        <time>2014-04-26T17:16:15Z</time>
      </trkpt>
      <trkpt lat="47.18484" lon="5.51659">
        <ele>337.5115</ele>
        <time>2014-04-26T17:16:20Z</time>
      </trkpt>
      <trkpt lat="47.18482" lon="5.5165">
        <ele>337.5115</ele>
        <time>2014-04-26T17:16:30Z</time>
      </trkpt>
      <trkpt lat="47.18482" lon="5.51648">
        <ele>332.81787</ele>
        <time>2014-04-26T17:16:35Z</time>
      </trkpt>
      <trkpt lat="47.18483" lon="5.51648">
        <ele>332.81787</ele>
        <time>2014-04-26T17:16:40Z</time>
      </trkpt>
      <trkpt lat="47.18484" lon="5.51648">
        <ele>332.81787</ele>
        <time>2014-04-26T17:16:45Z</time>
      </trkpt>
      <trkpt lat="47.18487" lon="5.5165">
        <ele>332.81787</ele>
        <time>2014-04-26T17:17:00Z</time>
      </trkpt>
      <trkpt lat="47.18489" lon="5.51652">
        <ele>332.81787</ele>
        <time>2014-04-26T17:17:05Z</time>
      </trkpt>
      <trkpt lat="47.18491" lon="5.51651">
        <ele>328.66058</ele>
        <time>2014-04-26T17:17:10Z</time>
      </trkpt>
      <trkpt lat="47.18499" lon="5.51648">
        <ele>328.66058</ele>
        <time>2014-04-26T17:17:20Z</time>
      </trkpt>
      <trkpt lat="47.18501" lon="5.51649">
        <ele>324.8676</ele>
        <time>2014-04-26T17:17:25Z</time>
      </trkpt>
      <trkpt lat="47.18503" lon="5.51654">
        <ele>324.8676</ele>
        <time>2014-04-26T17:17:30Z</time>
      </trkpt>
      <trkpt lat="47.185" lon="5.51657">
        <ele>324.8676</ele>
        <time>2014-04-26T17:17:35Z</time>
      </trkpt>
      <trkpt lat="47.18499" lon="5.5166">
        <ele>321.60986</ele>
        <time>2014-04-26T17:17:40Z</time>
      </trkpt>
      <trkpt lat="47.185" lon="5.5166">
        <ele>321.60986</ele>
        <time>2014-04-26T17:17:50Z</time>
      </trkpt>
      <trkpt lat="47.185" lon="5.5166">
        <ele>321.60986</ele>
        <time>2014-04-26T17:17:55Z</time>
      </trkpt>
      <trkpt lat="47.18497" lon="5.51662">
        <ele>321.60986</ele>
        <time>2014-04-26T17:19:10Z</time>
      </trkpt>
      <trkpt lat="47.18495" lon="5.51663">
        <ele>321.60986</ele>
        <time>2014-04-26T17:19:15Z</time>
      </trkpt>
      <trkpt lat="47.18493" lon="5.51667">
        <ele>319.57724</ele>
        <time>2014-04-26T17:19:20Z</time>
      </trkpt>
      <trkpt lat="47.18492" lon="5.51671">
        <ele>319.57724</ele>
        <time>2014-04-26T17:19:25Z</time>
      </trkpt>
      <trkpt lat="47.18495" lon="5.51675">
        <ele>319.57724</ele>
        <time>2014-04-26T17:19:30Z</time>
      </trkpt>
      <trkpt lat="47.18495" lon="5.51674">
        <ele>319.57724</ele>
        <time>2014-04-26T17:19:35Z</time>
      </trkpt>
      <trkpt lat="47.18491" lon="5.51678">
        <ele>318.10834</ele>
        <time>2014-04-26T17:19:40Z</time>
      </trkpt>
      <trkpt lat="47.18489" lon="5.51682">
        <ele>318.10834</ele>
        <time>2014-04-26T17:19:45Z</time>
      </trkpt>
      <trkpt lat="47.18488" lon="5.51685">
        <ele>318.10834</ele>
        <time>2014-04-26T17:19:50Z</time>
      </trkpt>
      <trkpt lat="47.18496" lon="5.51684">
        <ele>316.8191</ele>
        <time>2014-04-26T17:19:55Z</time>
      </trkpt>
      <trkpt lat="47.18498" lon="5.51684">
        <ele>316.8191</ele>
        <time>2014-04-26T17:20:00Z</time>
      </trkpt>
      <trkpt lat="47.18499" lon="5.51678">
        <ele>316.8191</ele>
        <time>2014-04-26T17:20:05Z</time>
      </trkpt>
      <trkpt lat="47.18503" lon="5.51682">
        <ele>315.2665</ele>
        <time>2014-04-26T17:20:10Z</time>
      </trkpt>
      <trkpt lat="47.18482" lon="5.51696">
        <ele>307.50626</ele>
        <time>2014-04-26T17:26:40Z</time>
      </trkpt>
      <trkpt lat="47.1848" lon="5.51694">
        <ele>307.50626</ele>
        <time>2014-04-26T17:26:45Z</time>
      </trkpt>
      <trkpt lat="47.1848" lon="5.51693">
        <ele>307.50626</ele>
        <time>2014-04-26T17:26:50Z</time>
      </trkpt>
      <trkpt lat="47.1848" lon="5.51693">
        <ele>307.50626</ele>
        <time>2014-04-26T17:26:55Z</time>
      </trkpt>
      <trkpt lat="47.18479" lon="5.51694">
        <ele>307.50626</ele>
        <time>2014-04-26T17:27:00Z</time>
      </trkpt>
      <trkpt lat="47.18479" lon="5.51694">
        <ele>308.42484</ele>
        <time>2014-04-26T17:27:05Z</time>
      </trkpt>
      <trkpt lat="47.18476" lon="5.51698">
        <ele>309.34338</ele>
        <time>2014-04-26T17:27:10Z</time>
      </trkpt>
      <trkpt lat="47.18473" lon="5.51701">
        <ele>310.07654</ele>
        <time>2014-04-26T17:27:15Z</time>
      </trkpt>
      <trkpt lat="47.18467" lon="5.51713">
        <ele>310.8097</ele>
        <time>2014-04-26T17:27:20Z</time>
      </trkpt>
      <trkpt lat="47.18471" lon="5.51716">
        <ele>314.24362</ele>
        <time>2014-04-26T17:27:55Z</time>
      </trkpt>
      <trkpt lat="47.18472" lon="5.51718">
        <ele>317.06894</ele>
        <time>2014-04-26T17:28:00Z</time>
      </trkpt>
      <trkpt lat="47.18469" lon="5.51722">
        <ele>317.06894</ele>
        <time>2014-04-26T17:28:05Z</time>
      </trkpt>
      <trkpt lat="47.18467" lon="5.51722">
        <ele>317.06894</ele>
        <time>2014-04-26T17:28:10Z</time>
      </trkpt>
      <trkpt lat="47.18466" lon="5.51726">
        <ele>317.06894</ele>
        <time>2014-04-26T17:28:15Z</time>
      </trkpt>
      <trkpt lat="47.18463" lon="5.51726">
        <ele>317.80914</ele>
        <time>2014-04-26T17:28:20Z</time>
      </trkpt>
      <trkpt lat="47.18461" lon="5.51719">
        <ele>318.54935</ele>
        <time>2014-04-26T17:28:35Z</time>
      </trkpt>
      <trkpt lat="47.18461" lon="5.51718">
        <ele>319.28955</ele>
        <time>2014-04-26T17:28:40Z</time>
      </trkpt>
      <trkpt lat="47.18456" lon="5.51714">
        <ele>320.02975</ele>
        <time>2014-04-26T17:28:45Z</time>
      </trkpt>
      <trkpt lat="47.1845" lon="5.51713">
        <ele>320.02975</ele>
        <time>2014-04-26T17:28:55Z</time>
      </trkpt>
      <trkpt lat="47.18442" lon="5.51717">
        <ele>347.13815</ele>
        <time>2014-04-26T17:34:55Z</time>
      </trkpt>
      <trkpt lat="47.18436" lon="5.51726">
        <ele>350.9626</ele>
        <time>2014-04-26T17:35:50Z</time>
      </trkpt>
      <trkpt lat="47.1843" lon="5.51729">
        <ele>354.13116</ele>
        <time>2014-04-26T17:35:55Z</time>
      </trkpt>
      <trkpt lat="47.18426" lon="5.51732">
        <ele>354.13116</ele>
        <time>2014-04-26T17:36:00Z</time>
      </trkpt>
      <trkpt lat="47.1842" lon="5.51732">
        <ele>356.74323</ele>
        <time>2014-04-26T17:36:05Z</time>
      </trkpt>
      <trkpt lat="47.18417" lon="5.51733">
        <ele>356.74323</ele>
        <time>2014-04-26T17:36:10Z</time>
      </trkpt>
      <trkpt lat="47.18417" lon="5.51732">
        <ele>356.74323</ele>
        <time>2014-04-26T17:36:15Z</time>
      </trkpt>
      <trkpt lat="47.18413" lon="5.5173">
        <ele>356.74323</ele>
        <time>2014-04-26T17:36:20Z</time>
      </trkpt>
      <trkpt lat="47.18408" lon="5.51731">
        <ele>359.1088</ele>
        <time>2014-04-26T17:36:25Z</time>
      </trkpt>
      <trkpt lat="47.18404" lon="5.5173">
        <ele>359.1088</ele>
        <time>2014-04-26T17:36:30Z</time>
      </trkpt>
      <trkpt lat="47.184" lon="5.5173">
        <ele>359.1088</ele>
        <time>2014-04-26T17:36:35Z</time>
      </trkpt>
      <trkpt lat="47.18395" lon="5.51726">
        <ele>360.82425</ele>
        <time>2014-04-26T17:36:40Z</time>
      </trkpt>
      <trkpt lat="47.18391" lon="5.5172">
        <ele>362.22385</ele>
        <time>2014-04-26T17:37:20Z</time>
      </trkpt>
      <trkpt lat="47.18381" lon="5.51726">
        <ele>368.51892</ele>
        <time>2014-04-26T17:40:15Z</time>
      </trkpt>
      <trkpt lat="47.18374" lon="5.51734">
        <ele>368.20184</ele>
        <time>2014-04-26T17:40:20Z</time>
      </trkpt>
      <trkpt lat="47.18367" lon="5.5174">
        <ele>368.20184</ele>
        <time>2014-04-26T17:40:25Z</time>
      </trkpt>
      <trkpt lat="47.18354" lon="5.51746">
        <ele>368.06885</ele>
        <time>2014-04-26T17:40:30Z</time>
      </trkpt>
      <trkpt lat="47.18344" lon="5.51744">
        <ele>367.90952</ele>
        <time>2014-04-26T17:40:35Z</time>
      </trkpt>
      <trkpt lat="47.18343" lon="5.51743">
        <ele>367.90952</ele>
        <time>2014-04-26T17:40:40Z</time>
      </trkpt>
      <trkpt lat="47.18343" lon="5.51744">
        <ele>367.90952</ele>
        <time>2014-04-26T17:40:50Z</time>
      </trkpt>
      <trkpt lat="47.1834" lon="5.51746">
        <ele>367.90952</ele>
        <time>2014-04-26T17:40:55Z</time>
      </trkpt>
      <trkpt lat="47.18332" lon="5.51749">
        <ele>367.77405</ele>
        <time>2014-04-26T17:41:00Z</time>
      </trkpt>
      <trkpt lat="47.18325" lon="5.51754">
        <ele>367.77405</ele>
        <time>2014-04-26T17:41:05Z</time>
      </trkpt>
      <trkpt lat="47.18316" lon="5.51757">
        <ele>367.65125</ele>
        <time>2014-04-26T17:41:10Z</time>
      </trkpt>
      <trkpt lat="47.18308" lon="5.5176">
        <ele>367.65125</ele>
        <time>2014-04-26T17:41:15Z</time>
      </trkpt>
      <trkpt lat="47.18298" lon="5.51762">
        <ele>367.61713</ele>
        <time>2014-04-26T17:41:20Z</time>
      </trkpt>
      <trkpt lat="47.18291" lon="5.51763">
        <ele>367.61713</ele>
        <time>2014-04-26T17:41:25Z</time>
      </trkpt>
      <trkpt lat="47.18286" lon="5.5176">
        <ele>367.54013</ele>
        <time>2014-04-26T17:41:30Z</time>
      </trkpt>
      <trkpt lat="47.18286" lon="5.51759">
        <ele>367.54013</ele>
        <time>2014-04-26T17:41:35Z</time>
      </trkpt>
      <trkpt lat="47.18284" lon="5.51751">
        <ele>367.54013</ele>
        <time>2014-04-26T17:42:40Z</time>
      </trkpt>
      <trkpt lat="47.18289" lon="5.51756">
        <ele>367.39926</ele>
        <time>2014-04-26T17:42:45Z</time>
      </trkpt>
      <trkpt lat="47.18286" lon="5.51753">
        <ele>367.39926</ele>
        <time>2014-04-26T17:42:50Z</time>
      </trkpt>
      <trkpt lat="47.18277" lon="5.51751">
        <ele>367.0888</ele>
        <time>2014-04-26T17:42:55Z</time>
      </trkpt>
      <trkpt lat="47.18266" lon="5.51752">
        <ele>366.7274</ele>
        <time>2014-04-26T17:43:00Z</time>
      </trkpt>
      <trkpt lat="47.18256" lon="5.51757">
        <ele>366.4394</ele>
        <time>2014-04-26T17:43:05Z</time>
      </trkpt>
      <trkpt lat="47.18246" lon="5.51764">
        <ele>366.19562</ele>
        <time>2014-04-26T17:43:10Z</time>
      </trkpt>
      <trkpt lat="47.18238" lon="5.51774">
        <ele>366.05533</ele>
        <time>2014-04-26T17:43:15Z</time>
      </trkpt>
      <trkpt lat="47.18228" lon="5.51782">
        <ele>365.95773</ele>
        <time>2014-04-26T17:43:20Z</time>
      </trkpt>
      <trkpt lat="47.18223" lon="5.5179">
        <ele>365.95773</ele>
        <time>2014-04-26T17:43:25Z</time>
      </trkpt>
      <trkpt lat="47.18221" lon="5.51792">
        <ele>365.8319</ele>
        <time>2014-04-26T17:43:30Z</time>
      </trkpt>
      <trkpt lat="47.18217" lon="5.51801">
        <ele>365.8319</ele>
        <time>2014-04-26T17:43:35Z</time>
      </trkpt>
      <trkpt lat="47.18209" lon="5.51813">
        <ele>365.9003</ele>
        <time>2014-04-26T17:43:40Z</time>
      </trkpt>
      <trkpt lat="47.18204" lon="5.51824">
        <ele>365.84955</ele>
        <time>2014-04-26T17:43:45Z</time>
      </trkpt>
      <trkpt lat="47.18201" lon="5.51835">
        <ele>365.84955</ele>
        <time>2014-04-26T17:43:50Z</time>
      </trkpt>
      <trkpt lat="47.18197" lon="5.51849">
        <ele>365.66333</ele>
        <time>2014-04-26T17:43:55Z</time>
      </trkpt>
      <trkpt lat="47.18192" lon="5.51864">
        <ele>365.60068</ele>
        <time>2014-04-26T17:44:00Z</time>
      </trkpt>
      <trkpt lat="47.18184" lon="5.51884">
        <ele>365.62723</ele>
        <time>2014-04-26T17:44:05Z</time>
      </trkpt>
      <trkpt lat="47.18174" lon="5.51899">
        <ele>365.62433</ele>
        <time>2014-04-26T17:44:10Z</time>
      </trkpt>
      <trkpt lat="47.18162" lon="5.51909">
        <ele>365.33792</ele>
        <time>2014-04-26T17:44:15Z</time>
      </trkpt>
      <trkpt lat="47.18162" lon="5.51909">
        <ele>365.33792</ele>
        <time>2014-04-26T17:44:20Z</time>
      </trkpt>
      <trkpt lat="47.18157" lon="5.51913">
        <ele>365.33792</ele>
        <time>2014-04-26T17:44:30Z</time>
      </trkpt>
      <trkpt lat="47.18154" lon="5.51914">
        <ele>365.33792</ele>
        <time>2014-04-26T17:44:35Z</time>
      </trkpt>
      <trkpt lat="47.18149" lon="5.51919">
        <ele>365.0088</ele>
        <time>2014-04-26T17:44:40Z</time>
      </trkpt>
      <trkpt lat="47.18139" lon="5.51928">
        <ele>364.716</ele>
        <time>2014-04-26T17:44:45Z</time>
      </trkpt>
      <trkpt lat="47.18126" lon="5.51941">
        <ele>364.5469</ele>
        <time>2014-04-26T17:44:50Z</time>
      </trkpt>
      <trkpt lat="47.18111" lon="5.51957">
        <ele>364.582</ele>
        <time>2014-04-26T17:44:55Z</time>
      </trkpt>
      <trkpt lat="47.18095" lon="5.51971">
        <ele>364.70786</ele>
        <time>2014-04-26T17:45:00Z</time>
      </trkpt>
      <trkpt lat="47.18075" lon="5.51979">
        <ele>364.80453</ele>
        <time>2014-04-26T17:45:05Z</time>
      </trkpt>
      <trkpt lat="47.18058" lon="5.5199">
        <ele>364.7321</ele>
        <time>2014-04-26T17:45:10Z</time>
      </trkpt>
      <trkpt lat="47.18045" lon="5.52006">
        <ele>364.67822</ele>
        <time>2014-04-26T17:45:15Z</time>
      </trkpt>
      <trkpt lat="47.18024" lon="5.52013">
        <ele>364.55725</ele>
        <time>2014-04-26T17:45:20Z</time>
      </trkpt>
      <trkpt lat="47.18007" lon="5.52023">
        <ele>364.3764</ele>
        <time>2014-04-26T17:45:25Z</time>
      </trkpt>
      <trkpt lat="47.17988" lon="5.52036">
        <ele>364.128</ele>
        <time>2014-04-26T17:45:30Z</time>
      </trkpt>
      <trkpt lat="47.17981" lon="5.52053">
        <ele>363.97784</ele>
        <time>2014-04-26T17:45:35Z</time>
      </trkpt>
      <trkpt lat="47.17977" lon="5.52057">
        <ele>363.97784</ele>
        <time>2014-04-26T17:45:40Z</time>
      </trkpt>
      <trkpt lat="47.17978" lon="5.5207">
        <ele>364.03607</ele>
        <time>2014-04-26T17:45:50Z</time>
      </trkpt>
      <trkpt lat="47.17973" lon="5.52069">
        <ele>364.03607</ele>
        <time>2014-04-26T17:45:55Z</time>
      </trkpt>
      <trkpt lat="47.17968" lon="5.52066">
        <ele>363.7987</ele>
        <time>2014-04-26T17:46:00Z</time>
      </trkpt>
      <trkpt lat="47.17969" lon="5.5206">
        <ele>363.7987</ele>
        <time>2014-04-26T17:46:05Z</time>
      </trkpt>
      <trkpt lat="47.17967" lon="5.52057">
        <ele>363.7987</ele>
        <time>2014-04-26T17:46:10Z</time>
      </trkpt>
      <trkpt lat="47.17967" lon="5.52057">
        <ele>363.7987</ele>
        <time>2014-04-26T17:46:15Z</time>
      </trkpt>
      <trkpt lat="47.17964" lon="5.52053">
        <ele>363.26065</ele>
        <time>2014-04-26T17:46:20Z</time>
      </trkpt>
      <trkpt lat="47.17962" lon="5.52052">
        <ele>363.26065</ele>
        <time>2014-04-26T17:46:25Z</time>
      </trkpt>
      <trkpt lat="47.17959" lon="5.52049">
        <ele>363.26065</ele>
        <time>2014-04-26T17:46:30Z</time>
      </trkpt>
      <trkpt lat="47.17958" lon="5.52049">
        <ele>363.26065</ele>
        <time>2014-04-26T17:46:35Z</time>
      </trkpt>
      <trkpt lat="47.17952" lon="5.52051">
        <ele>362.53326</ele>
        <time>2014-04-26T17:47:05Z</time>
      </trkpt>
      <trkpt lat="47.17948" lon="5.52054">
        <ele>362.53326</ele>
        <time>2014-04-26T17:47:10Z</time>
      </trkpt>
      <trkpt lat="47.17948" lon="5.52055">
        <ele>362.53326</ele>
        <time>2014-04-26T17:47:15Z</time>
      </trkpt>
      <trkpt lat="47.17951" lon="5.5206">
        <ele>361.50397</ele>
        <time>2014-04-26T17:47:30Z</time>
      </trkpt>
      <trkpt lat="47.17945" lon="5.5206">
        <ele>361.50397</ele>
        <time>2014-04-26T17:47:35Z</time>
      </trkpt>
      <trkpt lat="47.17936" lon="5.52055">
        <ele>360.5303</ele>
        <time>2014-04-26T17:47:40Z</time>
      </trkpt>
      <trkpt lat="47.17925" lon="5.52051">
        <ele>359.5831</ele>
        <time>2014-04-26T17:47:45Z</time>
      </trkpt>
      <trkpt lat="47.17915" lon="5.52054">
        <ele>358.67828</ele>
        <time>2014-04-26T17:47:50Z</time>
      </trkpt>
      <trkpt lat="47.17903" lon="5.52051">
        <ele>357.75836</ele>
        <time>2014-04-26T17:47:55Z</time>
      </trkpt>
      <trkpt lat="47.17889" lon="5.5205">
        <ele>356.8565</ele>
        <time>2014-04-26T17:48:00Z</time>
      </trkpt>
      <trkpt lat="47.17875" lon="5.52046">
        <ele>355.93115</ele>
        <time>2014-04-26T17:48:05Z</time>
      </trkpt>
      <trkpt lat="47.17862" lon="5.52033">
        <ele>355.0158</ele>
        <time>2014-04-26T17:48:10Z</time>
      </trkpt>
      <trkpt lat="47.1785" lon="5.52029">
        <ele>353.9685</ele>
        <time>2014-04-26T17:48:15Z</time>
      </trkpt>
      <trkpt lat="47.17847" lon="5.52026">
        <ele>353.9685</ele>
        <time>2014-04-26T17:48:20Z</time>
      </trkpt>
      <trkpt lat="47.17836" lon="5.52004">
        <ele>351.6491</ele>
        <time>2014-04-26T17:49:10Z</time>
      </trkpt>
      <trkpt lat="47.17832" lon="5.52008">
        <ele>346.64557</ele>
        <time>2014-04-26T17:50:35Z</time>
      </trkpt>
      <trkpt lat="47.17827" lon="5.52022">
        <ele>345.53284</ele>
        <time>2014-04-26T17:50:40Z</time>
      </trkpt>
      <trkpt lat="47.17819" lon="5.52031">
        <ele>344.51556</ele>
        <time>2014-04-26T17:50:45Z</time>
      </trkpt>
      <trkpt lat="47.17811" lon="5.52043">
        <ele>343.70425</ele>
        <time>2014-04-26T17:50:50Z</time>
      </trkpt>
      <trkpt lat="47.178" lon="5.52053">
        <ele>343.0132</ele>
        <time>2014-04-26T17:50:55Z</time>
      </trkpt>
      <trkpt lat="47.17791" lon="5.52066">
        <ele>342.4491</ele>
        <time>2014-04-26T17:51:00Z</time>
      </trkpt>
      <trkpt lat="47.17789" lon="5.52082">
        <ele>342.16168</ele>
        <time>2014-04-26T17:51:05Z</time>
      </trkpt>
      <trkpt lat="47.17784" lon="5.52096">
        <ele>342.02945</ele>
        <time>2014-04-26T17:51:10Z</time>
      </trkpt>
      <trkpt lat="47.17783" lon="5.52098">
        <ele>342.02945</ele>
        <time>2014-04-26T17:51:15Z</time>
      </trkpt>
      <trkpt lat="47.17776" lon="5.52105">
        <ele>342.2563</ele>
        <time>2014-04-26T17:51:25Z</time>
      </trkpt>
      <trkpt lat="47.1777" lon="5.52117">
        <ele>342.55453</ele>
        <time>2014-04-26T17:51:30Z</time>
      </trkpt>
      <trkpt lat="47.17763" lon="5.52138">
        <ele>342.9311</ele>
        <time>2014-04-26T17:51:35Z</time>
      </trkpt>
      <trkpt lat="47.17758" lon="5.52155">
        <ele>343.24802</ele>
        <time>2014-04-26T17:51:40Z</time>
      </trkpt>
      <trkpt lat="47.17752" lon="5.52175">
        <ele>343.56494</ele>
        <time>2014-04-26T17:51:45Z</time>
      </trkpt>
      <trkpt lat="47.17751" lon="5.52193">
        <ele>343.86502</ele>
        <time>2014-04-26T17:51:50Z</time>
      </trkpt>
      <trkpt lat="47.17752" lon="5.52211">
        <ele>344.23352</ele>
        <time>2014-04-26T17:51:55Z</time>
      </trkpt>
      <trkpt lat="47.17751" lon="5.52231">
        <ele>344.63394</ele>
        <time>2014-04-26T17:52:00Z</time>
      </trkpt>
      <trkpt lat="47.17744" lon="5.52246">
        <ele>344.9748</ele>
        <time>2014-04-26T17:52:05Z</time>
      </trkpt>
      <trkpt lat="47.17743" lon="5.52264">
        <ele>345.27222</ele>
        <time>2014-04-26T17:52:10Z</time>
      </trkpt>
      <trkpt lat="47.17743" lon="5.52279">
        <ele>345.59906</ele>
        <time>2014-04-26T17:52:15Z</time>
      </trkpt>
      <trkpt lat="47.17738" lon="5.52295">
        <ele>345.89297</ele>
        <time>2014-04-26T17:52:20Z</time>
      </trkpt>
      <trkpt lat="47.17732" lon="5.52315">
        <ele>346.2981</ele>
        <time>2014-04-26T17:52:25Z</time>
      </trkpt>
      <trkpt lat="47.17723" lon="5.52336">
        <ele>346.71707</ele>
        <time>2014-04-26T17:52:30Z</time>
      </trkpt>
      <trkpt lat="47.17714" lon="5.52353">
        <ele>347.23267</ele>
        <time>2014-04-26T17:52:35Z</time>
      </trkpt>
      <trkpt lat="47.17713" lon="5.5236">
        <ele>347.23267</ele>
        <time>2014-04-26T17:52:40Z</time>
      </trkpt>
      <trkpt lat="47.17706" lon="5.52376">
        <ele>347.9357</ele>
        <time>2014-04-26T17:52:55Z</time>
      </trkpt>
      <trkpt lat="47.17703" lon="5.52388">
        <ele>347.9357</ele>
        <time>2014-04-26T17:53:00Z</time>
      </trkpt>
      <trkpt lat="47.17701" lon="5.52404">
        <ele>348.59283</ele>
        <time>2014-04-26T17:53:05Z</time>
      </trkpt>
      <trkpt lat="47.17699" lon="5.52417">
        <ele>349.27625</ele>
        <time>2014-04-26T17:53:10Z</time>
      </trkpt>
      <trkpt lat="47.17689" lon="5.52431">
        <ele>349.98074</ele>
        <time>2014-04-26T17:53:15Z</time>
      </trkpt>
      <trkpt lat="47.17679" lon="5.52443">
        <ele>350.7736</ele>
        <time>2014-04-26T17:53:20Z</time>
      </trkpt>
      <trkpt lat="47.17664" lon="5.52462">
        <ele>351.67368</ele>
        <time>2014-04-26T17:53:25Z</time>
      </trkpt>
      <trkpt lat="47.17655" lon="5.52475">
        <ele>352.6118</ele>
        <time>2014-04-26T17:53:30Z</time>
      </trkpt>
      <trkpt lat="47.17651" lon="5.52488">
        <ele>353.4806</ele>
        <time>2014-04-26T17:53:35Z</time>
      </trkpt>
      <trkpt lat="47.17647" lon="5.52505">
        <ele>354.32495</ele>
        <time>2014-04-26T17:53:40Z</time>
      </trkpt>
      <trkpt lat="47.17649" lon="5.52524">
        <ele>355.18668</ele>
        <time>2014-04-26T17:53:45Z</time>
      </trkpt>
      <trkpt lat="47.17644" lon="5.5254">
        <ele>356.07565</ele>
        <time>2014-04-26T17:53:50Z</time>
      </trkpt>
      <trkpt lat="47.17641" lon="5.52556">
        <ele>357.02994</ele>
        <time>2014-04-26T17:53:55Z</time>
      </trkpt>
      <trkpt lat="47.17637" lon="5.52574">
        <ele>358.17108</ele>
        <time>2014-04-26T17:54:00Z</time>
      </trkpt>
      <trkpt lat="47.17639" lon="5.52591">
        <ele>359.42404</ele>
        <time>2014-04-26T17:54:05Z</time>
      </trkpt>
      <trkpt lat="47.17637" lon="5.52609">
        <ele>360.63254</ele>
        <time>2014-04-26T17:54:10Z</time>
      </trkpt>
      <trkpt lat="47.17637" lon="5.52625">
        <ele>361.76733</ele>
        <time>2014-04-26T17:54:15Z</time>
      </trkpt>
      <trkpt lat="47.17631" lon="5.52638">
        <ele>362.7584</ele>
        <time>2014-04-26T17:54:20Z</time>
      </trkpt>
      <trkpt lat="47.17623" lon="5.52643">
        <ele>362.7584</ele>
        <time>2014-04-26T17:54:25Z</time>
      </trkpt>
      <trkpt lat="47.1762" lon="5.52654">
        <ele>363.58456</ele>
        <time>2014-04-26T17:54:35Z</time>
      </trkpt>
      <trkpt lat="47.17618" lon="5.52674">
        <ele>364.31332</ele>
        <time>2014-04-26T17:54:40Z</time>
      </trkpt>
      <trkpt lat="47.17613" lon="5.52702">
        <ele>365.0508</ele>
        <time>2014-04-26T17:54:45Z</time>
      </trkpt>
      <trkpt lat="47.17612" lon="5.52729">
        <ele>365.7801</ele>
        <time>2014-04-26T17:54:50Z</time>
      </trkpt>
      <trkpt lat="47.176" lon="5.52754">
        <ele>366.52893</ele>
        <time>2014-04-26T17:54:55Z</time>
      </trkpt>
      <trkpt lat="47.17588" lon="5.52773">
        <ele>367.13568</ele>
        <time>2014-04-26T17:55:00Z</time>
      </trkpt>
      <trkpt lat="47.17575" lon="5.52792">
        <ele>367.69608</ele>
        <time>2014-04-26T17:55:05Z</time>
      </trkpt>
      <trkpt lat="47.17571" lon="5.52808">
        <ele>368.29907</ele>
        <time>2014-04-26T17:55:10Z</time>
      </trkpt>
      <trkpt lat="47.17565" lon="5.52829">
        <ele>368.955</ele>
        <time>2014-04-26T17:55:15Z</time>
      </trkpt>
      <trkpt lat="47.17566" lon="5.52852">
        <ele>369.74536</ele>
        <time>2014-04-26T17:55:20Z</time>
      </trkpt>
      <trkpt lat="47.17565" lon="5.52878">
        <ele>370.5725</ele>
        <time>2014-04-26T17:55:25Z</time>
      </trkpt>
      <trkpt lat="47.17557" lon="5.529">
        <ele>371.3748</ele>
        <time>2014-04-26T17:55:30Z</time>
      </trkpt>
      <trkpt lat="47.1755" lon="5.52919">
        <ele>372.18164</ele>
        <time>2014-04-26T17:55:35Z</time>
      </trkpt>
      <trkpt lat="47.17545" lon="5.52941">
        <ele>373.00598</ele>
        <time>2014-04-26T17:55:40Z</time>
      </trkpt>
      <trkpt lat="47.17543" lon="5.52961">
        <ele>373.81662</ele>
        <time>2014-04-26T17:55:45Z</time>
      </trkpt>
      <trkpt lat="47.17538" lon="5.52978">
        <ele>374.49826</ele>
        <time>2014-04-26T17:55:50Z</time>
      </trkpt>
      <trkpt lat="47.17523" lon="5.52994">
        <ele>375.08868</ele>
        <time>2014-04-26T17:55:55Z</time>
      </trkpt>
      <trkpt lat="47.17508" lon="5.52997">
        <ele>375.56546</ele>
        <time>2014-04-26T17:56:00Z</time>
      </trkpt>
      <trkpt lat="47.17503" lon="5.52995">
        <ele>375.56546</ele>
        <time>2014-04-26T17:56:05Z</time>
      </trkpt>
      <trkpt lat="47.17504" lon="5.52994">
        <ele>375.56546</ele>
        <time>2014-04-26T17:56:10Z</time>
      </trkpt>
      <trkpt lat="47.17502" lon="5.52996">
        <ele>375.56546</ele>
        <time>2014-04-26T17:56:20Z</time>
      </trkpt>
      <trkpt lat="47.17502" lon="5.52995">
        <ele>375.56546</ele>
        <time>2014-04-26T17:56:25Z</time>
      </trkpt>
      <trkpt lat="47.17508" lon="5.52996">
        <ele>374.8995</ele>
        <time>2014-04-26T17:56:40Z</time>
      </trkpt>
      <trkpt lat="47.17508" lon="5.52996">
        <ele>374.8995</ele>
        <time>2014-04-26T17:56:45Z</time>
      </trkpt>
      <trkpt lat="47.17513" lon="5.52995">
        <ele>374.8995</ele>
        <time>2014-04-26T17:56:50Z</time>
      </trkpt>
      <trkpt lat="47.17512" lon="5.52995">
        <ele>374.8995</ele>
        <time>2014-04-26T17:56:55Z</time>
      </trkpt>
      <trkpt lat="47.17513" lon="5.52997">
        <ele>374.8995</ele>
        <time>2014-04-26T17:57:20Z</time>
      </trkpt>
      <trkpt lat="47.17514" lon="5.52997">
        <ele>374.8995</ele>
        <time>2014-04-26T17:57:25Z</time>
      </trkpt>
      <trkpt lat="47.17517" lon="5.52999">
        <ele>374.04282</ele>
        <time>2014-04-26T17:57:30Z</time>
      </trkpt>
      <trkpt lat="47.17518" lon="5.53">
        <ele>374.04282</ele>
        <time>2014-04-26T17:57:35Z</time>
      </trkpt>
      <trkpt lat="47.17514" lon="5.52999">
        <ele>374.04282</ele>
        <time>2014-04-26T17:57:40Z</time>
      </trkpt>
      <trkpt lat="47.17504" lon="5.52984">
        <ele>373.18628</ele>
        <time>2014-04-26T17:57:45Z</time>
      </trkpt>
      <trkpt lat="47.17491" lon="5.52961">
        <ele>372.26184</ele>
        <time>2014-04-26T17:57:50Z</time>
      </trkpt>
      <trkpt lat="47.17477" lon="5.52938">
        <ele>371.20663</ele>
        <time>2014-04-26T17:57:55Z</time>
      </trkpt>
      <trkpt lat="47.17464" lon="5.52911">
        <ele>370.13568</ele>
        <time>2014-04-26T17:58:00Z</time>
      </trkpt>
      <trkpt lat="47.17451" lon="5.5288">
        <ele>369.1412</ele>
        <time>2014-04-26T17:58:05Z</time>
      </trkpt>
      <trkpt lat="47.17434" lon="5.52846">
        <ele>368.02017</ele>
        <time>2014-04-26T17:58:10Z</time>
      </trkpt>
      <trkpt lat="47.17416" lon="5.52818">
        <ele>366.74332</ele>
        <time>2014-04-26T17:58:15Z</time>
      </trkpt>
      <trkpt lat="47.1739" lon="5.52792">
        <ele>365.12537</ele>
        <time>2014-04-26T17:58:20Z</time>
      </trkpt>
      <trkpt lat="47.1738" lon="5.52782">
        <ele>363.35583</ele>
        <time>2014-04-26T17:58:25Z</time>
      </trkpt>
      <trkpt lat="47.1738" lon="5.52782">
        <ele>363.35583</ele>
        <time>2014-04-26T17:58:30Z</time>
      </trkpt>
      <trkpt lat="47.17381" lon="5.52774">
        <ele>363.35583</ele>
        <time>2014-04-26T17:59:05Z</time>
      </trkpt>
      <trkpt lat="47.17386" lon="5.52777">
        <ele>361.58188</ele>
        <time>2014-04-26T17:59:10Z</time>
      </trkpt>
      <trkpt lat="47.17389" lon="5.52777">
        <ele>361.58188</ele>
        <time>2014-04-26T17:59:15Z</time>
      </trkpt>
      <trkpt lat="47.1739" lon="5.52777">
        <ele>361.58188</ele>
        <time>2014-04-26T17:59:20Z</time>
      </trkpt>
      <trkpt lat="47.17391" lon="5.52778">
        <ele>361.58188</ele>
        <time>2014-04-26T17:59:25Z</time>
      </trkpt>
      <trkpt lat="47.17392" lon="5.52777">
        <ele>361.58188</ele>
        <time>2014-04-26T17:59:30Z</time>
      </trkpt>
      <trkpt lat="47.17387" lon="5.52769">
        <ele>360.4153</ele>
        <time>2014-04-26T18:00:30Z</time>
      </trkpt>
      <trkpt lat="47.17383" lon="5.52768">
        <ele>360.4153</ele>
        <time>2014-04-26T18:00:35Z</time>
      </trkpt>
      <trkpt lat="47.17378" lon="5.52764">
        <ele>359.34033</ele>
        <time>2014-04-26T18:00:40Z</time>
      </trkpt>
      <trkpt lat="47.17361" lon="5.52754">
        <ele>358.26785</ele>
        <time>2014-04-26T18:00:45Z</time>
      </trkpt>
      <trkpt lat="47.17336" lon="5.52735">
        <ele>357.25922</ele>
        <time>2014-04-26T18:00:50Z</time>
      </trkpt>
      <trkpt lat="47.1731" lon="5.52715">
        <ele>356.2846</ele>
        <time>2014-04-26T18:00:55Z</time>
      </trkpt>
      <trkpt lat="47.17283" lon="5.52696">
        <ele>355.38818</ele>
        <time>2014-04-26T18:01:00Z</time>
      </trkpt>
      <trkpt lat="47.17253" lon="5.52675">
        <ele>354.52405</ele>
        <time>2014-04-26T18:01:05Z</time>
      </trkpt>
      <trkpt lat="47.17222" lon="5.52653">
        <ele>353.56308</ele>
        <time>2014-04-26T18:01:10Z</time>
      </trkpt>
      <trkpt lat="47.17196" lon="5.52633">
        <ele>352.44333</ele>
        <time>2014-04-26T18:01:15Z</time>
      </trkpt>
      <trkpt lat="47.17168" lon="5.5261">
        <ele>351.32394</ele>
        <time>2014-04-26T18:01:20Z</time>
      </trkpt>
      <trkpt lat="47.17137" lon="5.52584">
        <ele>350.10733</ele>
        <time>2014-04-26T18:01:25Z</time>
      </trkpt>
      <trkpt lat="47.17107" lon="5.52558">
        <ele>348.78958</ele>
        <time>2014-04-26T18:01:30Z</time>
      </trkpt>
      <trkpt lat="47.17086" lon="5.52539">
        <ele>346.97818</ele>
        <time>2014-04-26T18:01:35Z</time>
      </trkpt>
      <trkpt lat="47.17067" lon="5.52524">
        <ele>345.24744</ele>
        <time>2014-04-26T18:01:40Z</time>
      </trkpt>
      <trkpt lat="47.17043" lon="5.52507">
        <ele>343.63913</ele>
        <time>2014-04-26T18:01:45Z</time>
      </trkpt>
      <trkpt lat="47.1701" lon="5.52484">
        <ele>342.09064</ele>
        <time>2014-04-26T18:01:50Z</time>
      </trkpt>
      <trkpt lat="47.1698" lon="5.52458">
        <ele>340.6733</ele>
        <time>2014-04-26T18:01:55Z</time>
      </trkpt>
      <trkpt lat="47.16948" lon="5.52432">
        <ele>339.40952</ele>
        <time>2014-04-26T18:02:00Z</time>
      </trkpt>
      <trkpt lat="47.16915" lon="5.52405">
        <ele>338.0024</ele>
        <time>2014-04-26T18:02:05Z</time>
      </trkpt>
      <trkpt lat="47.1688" lon="5.52378">
        <ele>336.11954</ele>
        <time>2014-04-26T18:02:10Z</time>
      </trkpt>
      <trkpt lat="47.16843" lon="5.5235">
        <ele>334.43408</ele>
        <time>2014-04-26T18:02:15Z</time>
      </trkpt>
      <trkpt lat="47.16807" lon="5.52321">
        <ele>332.71872</ele>
        <time>2014-04-26T18:02:20Z</time>
      </trkpt>
      <trkpt lat="47.16769" lon="5.52298">
        <ele>330.835</ele>
        <time>2014-04-26T18:02:25Z</time>
      </trkpt>
      <trkpt lat="47.16738" lon="5.52271">
        <ele>328.49628</ele>
        <time>2014-04-26T18:02:30Z</time>
      </trkpt>
      <trkpt lat="47.16706" lon="5.52246">
        <ele>325.97144</ele>
        <time>2014-04-26T18:02:35Z</time>
      </trkpt>
      <trkpt lat="47.16666" lon="5.52221">
        <ele>323.46674</ele>
        <time>2014-04-26T18:02:40Z</time>
      </trkpt>
      <trkpt lat="47.16645" lon="5.52198">
        <ele>320.7551</ele>
        <time>2014-04-26T18:02:45Z</time>
      </trkpt>
      <trkpt lat="47.16619" lon="5.52173">
        <ele>318.3184</ele>
        <time>2014-04-26T18:02:50Z</time>
      </trkpt>
      <trkpt lat="47.16592" lon="5.52151">
        <ele>315.88156</ele>
        <time>2014-04-26T18:02:55Z</time>
      </trkpt>
      <trkpt lat="47.16562" lon="5.52127">
        <ele>313.30484</ele>
        <time>2014-04-26T18:03:00Z</time>
      </trkpt>
      <trkpt lat="47.16528" lon="5.52101">
        <ele>310.9346</ele>
        <time>2014-04-26T18:03:05Z</time>
      </trkpt>
      <trkpt lat="47.16495" lon="5.52078">
        <ele>308.86044</ele>
        <time>2014-04-26T18:03:10Z</time>
      </trkpt>
      <trkpt lat="47.16455" lon="5.5205">
        <ele>306.87616</ele>
        <time>2014-04-26T18:03:15Z</time>
      </trkpt>
      <trkpt lat="47.16427" lon="5.52028">
        <ele>305.0497</ele>
        <time>2014-04-26T18:03:20Z</time>
      </trkpt>
      <trkpt lat="47.16394" lon="5.52002">
        <ele>303.29932</ele>
        <time>2014-04-26T18:03:25Z</time>
      </trkpt>
      <trkpt lat="47.16363" lon="5.5197">
        <ele>301.50565</ele>
        <time>2014-04-26T18:03:30Z</time>
      </trkpt>
      <trkpt lat="47.16338" lon="5.51934">
        <ele>299.84634</ele>
        <time>2014-04-26T18:03:35Z</time>
      </trkpt>
      <trkpt lat="47.16311" lon="5.51901">
        <ele>298.6728</ele>
        <time>2014-04-26T18:03:40Z</time>
      </trkpt>
      <trkpt lat="47.16293" lon="5.51878">
        <ele>297.5886</ele>
        <time>2014-04-26T18:03:45Z</time>
      </trkpt>
      <trkpt lat="47.16263" lon="5.51847">
        <ele>296.55753</ele>
        <time>2014-04-26T18:03:50Z</time>
      </trkpt>
      <trkpt lat="47.16237" lon="5.51822">
        <ele>295.71872</ele>
        <time>2014-04-26T18:03:55Z</time>
      </trkpt>
      <trkpt lat="47.16213" lon="5.51801">
        <ele>294.81128</ele>
        <time>2014-04-26T18:04:00Z</time>
      </trkpt>
      <trkpt lat="47.16204" lon="5.51777">
        <ele>293.96838</ele>
        <time>2014-04-26T18:04:05Z</time>
      </trkpt>
      <trkpt lat="47.16218" lon="5.51765">
        <ele>293.35638</ele>
        <time>2014-04-26T18:04:10Z</time>
      </trkpt>
      <trkpt lat="47.16224" lon="5.51763">
        <ele>293.35638</ele>
        <time>2014-04-26T18:04:15Z</time>
      </trkpt>
      <trkpt lat="47.16225" lon="5.51763">
        <ele>293.35638</ele>
        <time>2014-04-26T18:04:20Z</time>
      </trkpt>
    </trkseg>
  </trk>
</gpx>